<?xml version='1.0' encoding='UTF-8'?>
<gpx version="1.1" creator="https://www.komoot.de" xmlns="http://www.topografix.com/GPX/1/1" xmlns:xsi="http://www.w3.org/2001/XMLSchema-instance" xsi:schemaLocation="http://www.topografix.com/GPX/1/1 http://www.topografix.com/GPX/1/1/gpx.xsd">
  <metadata>
    <name>Wanderung</name>
    <author>
      <link href="https://www.komoot.de">
        <text>komoot</text>
        <type>text/html</type>
      </link>
    </author>
  </metadata>
  <trk>
    <name>Wanderung</name>
    <trkseg>
      <trkpt lat="48.802667" lon="11.227953">
        <ele>415.314300</ele>
        <time>2019-03-10T17:37:27.999Z</time>
      </trkpt>
      <trkpt lat="48.802695" lon="11.228123">
        <ele>415.314300</ele>
        <time>2019-03-10T17:37:30.998Z</time>
      </trkpt>
      <trkpt lat="48.802696" lon="11.228289">
        <ele>415.314300</ele>
        <time>2019-03-10T17:37:33.998Z</time>
      </trkpt>
      <trkpt lat="48.802713" lon="11.228483">
        <ele>415.314300</ele>
        <time>2019-03-10T17:37:36.998Z</time>
      </trkpt>
      <trkpt lat="48.802763" lon="11.228613">
        <ele>415.314300</ele>
        <time>2019-03-10T17:37:38.998Z</time>
      </trkpt>
      <trkpt lat="48.802697" lon="11.228798">
        <ele>415.314300</ele>
        <time>2019-03-10T17:37:40.997Z</time>
      </trkpt>
      <trkpt lat="48.802686" lon="11.228987">
        <ele>415.314300</ele>
        <time>2019-03-10T17:37:42.997Z</time>
      </trkpt>
      <trkpt lat="48.802713" lon="11.229121">
        <ele>415.314300</ele>
        <time>2019-03-10T17:37:44.997Z</time>
      </trkpt>
      <trkpt lat="48.802718" lon="11.229282">
        <ele>415.323922</ele>
        <time>2019-03-10T17:37:46.997Z</time>
      </trkpt>
      <trkpt lat="48.802715" lon="11.229474">
        <ele>415.402423</ele>
        <time>2019-03-10T17:37:48.998Z</time>
      </trkpt>
      <trkpt lat="48.802704" lon="11.229675">
        <ele>415.484863</ele>
        <time>2019-03-10T17:37:50.997Z</time>
      </trkpt>
      <trkpt lat="48.802702" lon="11.229889">
        <ele>415.572343</ele>
        <time>2019-03-10T17:37:52.997Z</time>
      </trkpt>
      <trkpt lat="48.802698" lon="11.230106">
        <ele>415.661076</ele>
        <time>2019-03-10T17:37:54.997Z</time>
      </trkpt>
      <trkpt lat="48.802710" lon="11.230352">
        <ele>415.761902</ele>
        <time>2019-03-10T17:37:56.996Z</time>
      </trkpt>
      <trkpt lat="48.802715" lon="11.230584">
        <ele>415.856782</ele>
        <time>2019-03-10T17:37:58.996Z</time>
      </trkpt>
      <trkpt lat="48.802732" lon="11.230846">
        <ele>415.964391</ele>
        <time>2019-03-10T17:38:00.996Z</time>
      </trkpt>
      <trkpt lat="48.802748" lon="11.231086">
        <ele>416.062991</ele>
        <time>2019-03-10T17:38:02.996Z</time>
      </trkpt>
      <trkpt lat="48.802757" lon="11.231341">
        <ele>416.167370</ele>
        <time>2019-03-10T17:38:04.996Z</time>
      </trkpt>
      <trkpt lat="48.802776" lon="11.231582">
        <ele>416.266580</ele>
        <time>2019-03-10T17:38:06.996Z</time>
      </trkpt>
      <trkpt lat="48.802770" lon="11.231736">
        <ele>416.329637</ele>
        <time>2019-03-10T17:38:08.996Z</time>
      </trkpt>
      <trkpt lat="48.802734" lon="11.231869">
        <ele>416.388411</ele>
        <time>2019-03-10T17:38:12.996Z</time>
      </trkpt>
      <trkpt lat="48.802602" lon="11.231909">
        <ele>416.281240</ele>
        <time>2019-03-10T17:38:15.996Z</time>
      </trkpt>
      <trkpt lat="48.802414" lon="11.231936">
        <ele>415.859260</ele>
        <time>2019-03-10T17:38:17.996Z</time>
      </trkpt>
      <trkpt lat="48.802323" lon="11.231939">
        <ele>415.655864</ele>
        <time>2019-03-10T17:38:18.995Z</time>
      </trkpt>
      <trkpt lat="48.802153" lon="11.231967">
        <ele>415.273753</ele>
        <time>2019-03-10T17:38:20.995Z</time>
      </trkpt>
      <trkpt lat="48.802059" lon="11.231969">
        <ele>415.063680</ele>
        <time>2019-03-10T17:38:21.995Z</time>
      </trkpt>
      <trkpt lat="48.801932" lon="11.231994">
        <ele>414.777510</ele>
        <time>2019-03-10T17:38:23.995Z</time>
      </trkpt>
      <trkpt lat="48.801813" lon="11.232011">
        <ele>414.510418</ele>
        <time>2019-03-10T17:38:25.995Z</time>
      </trkpt>
      <trkpt lat="48.801694" lon="11.231977">
        <ele>414.239833</ele>
        <time>2019-03-10T17:38:27.995Z</time>
      </trkpt>
      <trkpt lat="48.801552" lon="11.231945">
        <ele>413.919043</ele>
        <time>2019-03-10T17:38:29.995Z</time>
      </trkpt>
      <trkpt lat="48.801393" lon="11.231921">
        <ele>413.561990</ele>
        <time>2019-03-10T17:38:31.995Z</time>
      </trkpt>
      <trkpt lat="48.801237" lon="11.231940">
        <ele>413.212273</ele>
        <time>2019-03-10T17:38:33.995Z</time>
      </trkpt>
      <trkpt lat="48.801130" lon="11.232014">
        <ele>412.949531</ele>
        <time>2019-03-10T17:38:34.995Z</time>
      </trkpt>
      <trkpt lat="48.800943" lon="11.232003">
        <ele>412.531348</ele>
        <time>2019-03-10T17:38:36.995Z</time>
      </trkpt>
      <trkpt lat="48.800761" lon="11.232031">
        <ele>411.674938</ele>
        <time>2019-03-10T17:38:38.995Z</time>
      </trkpt>
      <trkpt lat="48.800638" lon="11.232070">
        <ele>410.958760</ele>
        <time>2019-03-10T17:38:39.995Z</time>
      </trkpt>
      <trkpt lat="48.800538" lon="11.232092">
        <ele>410.382845</ele>
        <time>2019-03-10T17:38:40.995Z</time>
      </trkpt>
      <trkpt lat="48.800423" lon="11.232010">
        <ele>409.658697</ele>
        <time>2019-03-10T17:38:42.995Z</time>
      </trkpt>
      <trkpt lat="48.800348" lon="11.232103">
        <ele>409.106761</ele>
        <time>2019-03-10T17:38:43.995Z</time>
      </trkpt>
      <trkpt lat="48.800188" lon="11.232078">
        <ele>408.190006</ele>
        <time>2019-03-10T17:38:47.994Z</time>
      </trkpt>
      <trkpt lat="48.800078" lon="11.232072">
        <ele>407.562644</ele>
        <time>2019-03-10T17:38:50.994Z</time>
      </trkpt>
      <trkpt lat="48.800007" lon="11.231979">
        <ele>407.028169</ele>
        <time>2019-03-10T17:38:52.994Z</time>
      </trkpt>
      <trkpt lat="48.799881" lon="11.231999">
        <ele>406.306104</ele>
        <time>2019-03-10T17:38:54.994Z</time>
      </trkpt>
      <trkpt lat="48.799793" lon="11.232042">
        <ele>405.779199</ele>
        <time>2019-03-10T17:38:59.994Z</time>
      </trkpt>
      <trkpt lat="48.799688" lon="11.232018">
        <ele>405.173995</ele>
        <time>2019-03-10T17:39:03.994Z</time>
      </trkpt>
      <trkpt lat="48.799568" lon="11.232029">
        <ele>404.488796</ele>
        <time>2019-03-10T17:39:07.994Z</time>
      </trkpt>
      <trkpt lat="48.799458" lon="11.232023">
        <ele>403.861434</ele>
        <time>2019-03-10T17:39:10.993Z</time>
      </trkpt>
      <trkpt lat="48.799367" lon="11.232087">
        <ele>403.289817</ele>
        <time>2019-03-10T17:39:12.993Z</time>
      </trkpt>
      <trkpt lat="48.799250" lon="11.232104">
        <ele>402.619916</ele>
        <time>2019-03-10T17:39:15.993Z</time>
      </trkpt>
      <trkpt lat="48.799138" lon="11.232079">
        <ele>401.951555</ele>
        <time>2019-03-10T17:39:17.993Z</time>
      </trkpt>
      <trkpt lat="48.798979" lon="11.232075">
        <ele>400.931809</ele>
        <time>2019-03-10T17:39:19.993Z</time>
      </trkpt>
      <trkpt lat="48.798850" lon="11.232077">
        <ele>400.104537</ele>
        <time>2019-03-10T17:39:21.993Z</time>
      </trkpt>
      <trkpt lat="48.798723" lon="11.232118">
        <ele>399.271924</ele>
        <time>2019-03-10T17:39:23.993Z</time>
      </trkpt>
      <trkpt lat="48.798568" lon="11.232143">
        <ele>398.272374</ele>
        <time>2019-03-10T17:39:25.993Z</time>
      </trkpt>
      <trkpt lat="48.798422" lon="11.232180">
        <ele>397.323176</ele>
        <time>2019-03-10T17:39:27.993Z</time>
      </trkpt>
      <trkpt lat="48.798265" lon="11.232186">
        <ele>396.316076</ele>
        <time>2019-03-10T17:39:29.993Z</time>
      </trkpt>
      <trkpt lat="48.798161" lon="11.232218">
        <ele>395.635603</ele>
        <time>2019-03-10T17:39:31.993Z</time>
      </trkpt>
      <trkpt lat="48.798053" lon="11.232275">
        <ele>394.902381</ele>
        <time>2019-03-10T17:39:33.993Z</time>
      </trkpt>
      <trkpt lat="48.797939" lon="11.232337">
        <ele>394.125846</ele>
        <time>2019-03-10T17:39:35.993Z</time>
      </trkpt>
      <trkpt lat="48.797920" lon="11.232480">
        <ele>393.509635</ele>
        <time>2019-03-10T17:39:42.992Z</time>
      </trkpt>
      <trkpt lat="48.797951" lon="11.232612">
        <ele>392.917677</ele>
        <time>2019-03-10T17:39:44.992Z</time>
      </trkpt>
      <trkpt lat="48.798001" lon="11.232755">
        <ele>392.233809</ele>
        <time>2019-03-10T17:39:46.992Z</time>
      </trkpt>
      <trkpt lat="48.798043" lon="11.232969">
        <ele>391.290583</ele>
        <time>2019-03-10T17:39:48.992Z</time>
      </trkpt>
      <trkpt lat="48.798088" lon="11.233202">
        <ele>390.631276</ele>
        <time>2019-03-10T17:39:50.992Z</time>
      </trkpt>
      <trkpt lat="48.798131" lon="11.233414">
        <ele>390.645850</ele>
        <time>2019-03-10T17:39:52.992Z</time>
      </trkpt>
      <trkpt lat="48.798148" lon="11.233560">
        <ele>390.655591</ele>
        <time>2019-03-10T17:39:53.992Z</time>
      </trkpt>
      <trkpt lat="48.798141" lon="11.233822">
        <ele>390.672818</ele>
        <time>2019-03-10T17:39:55.992Z</time>
      </trkpt>
      <trkpt lat="48.798155" lon="11.233962">
        <ele>390.682121</ele>
        <time>2019-03-10T17:39:56.992Z</time>
      </trkpt>
      <trkpt lat="48.798145" lon="11.234133">
        <ele>390.693400</ele>
        <time>2019-03-10T17:39:57.992Z</time>
      </trkpt>
      <trkpt lat="48.798134" lon="11.234277">
        <ele>390.702924</ele>
        <time>2019-03-10T17:39:58.992Z</time>
      </trkpt>
      <trkpt lat="48.798116" lon="11.234424">
        <ele>390.712747</ele>
        <time>2019-03-10T17:39:59.992Z</time>
      </trkpt>
      <trkpt lat="48.798098" lon="11.234568">
        <ele>390.722377</ele>
        <time>2019-03-10T17:40:00.992Z</time>
      </trkpt>
      <trkpt lat="48.798087" lon="11.234710">
        <ele>390.731771</ele>
        <time>2019-03-10T17:40:01.992Z</time>
      </trkpt>
      <trkpt lat="48.798078" lon="11.234855">
        <ele>390.741339</ele>
        <time>2019-03-10T17:40:02.992Z</time>
      </trkpt>
      <trkpt lat="48.798061" lon="11.235002">
        <ele>390.751145</ele>
        <time>2019-03-10T17:40:03.991Z</time>
      </trkpt>
      <trkpt lat="48.798037" lon="11.235151">
        <ele>390.761223</ele>
        <time>2019-03-10T17:40:04.991Z</time>
      </trkpt>
      <trkpt lat="48.798019" lon="11.235311">
        <ele>390.771887</ele>
        <time>2019-03-10T17:40:05.991Z</time>
      </trkpt>
      <trkpt lat="48.797981" lon="11.235456">
        <ele>390.782139</ele>
        <time>2019-03-10T17:40:06.991Z</time>
      </trkpt>
      <trkpt lat="48.797950" lon="11.235592">
        <ele>390.791594</ele>
        <time>2019-03-10T17:40:07.991Z</time>
      </trkpt>
      <trkpt lat="48.797910" lon="11.235728">
        <ele>390.801380</ele>
        <time>2019-03-10T17:40:08.991Z</time>
      </trkpt>
      <trkpt lat="48.797883" lon="11.235864">
        <ele>390.795907</ele>
        <time>2019-03-10T17:40:09.991Z</time>
      </trkpt>
      <trkpt lat="48.797841" lon="11.235995">
        <ele>390.780405</ele>
        <time>2019-03-10T17:40:10.991Z</time>
      </trkpt>
      <trkpt lat="48.797804" lon="11.236130">
        <ele>390.764846</ele>
        <time>2019-03-10T17:40:11.991Z</time>
      </trkpt>
      <trkpt lat="48.797772" lon="11.236271">
        <ele>390.748977</ele>
        <time>2019-03-10T17:40:12.991Z</time>
      </trkpt>
      <trkpt lat="48.797792" lon="11.236565">
        <ele>390.717527</ele>
        <time>2019-03-10T17:40:14.991Z</time>
      </trkpt>
      <trkpt lat="48.797773" lon="11.236722">
        <ele>390.700542</ele>
        <time>2019-03-10T17:40:15.991Z</time>
      </trkpt>
      <trkpt lat="48.797794" lon="11.236926">
        <ele>390.678571</ele>
        <time>2019-03-10T17:40:16.991Z</time>
      </trkpt>
      <trkpt lat="48.797808" lon="11.237085">
        <ele>390.661502</ele>
        <time>2019-03-10T17:40:17.991Z</time>
      </trkpt>
      <trkpt lat="48.797827" lon="11.237235">
        <ele>390.645249</ele>
        <time>2019-03-10T17:40:18.991Z</time>
      </trkpt>
      <trkpt lat="48.797856" lon="11.237419">
        <ele>390.625117</ele>
        <time>2019-03-10T17:40:19.991Z</time>
      </trkpt>
      <trkpt lat="48.797887" lon="11.237595">
        <ele>390.605732</ele>
        <time>2019-03-10T17:40:20.991Z</time>
      </trkpt>
      <trkpt lat="48.797921" lon="11.237771">
        <ele>390.586215</ele>
        <time>2019-03-10T17:40:21.991Z</time>
      </trkpt>
      <trkpt lat="48.797970" lon="11.237960">
        <ele>390.564603</ele>
        <time>2019-03-10T17:40:22.991Z</time>
      </trkpt>
      <trkpt lat="48.798003" lon="11.238147">
        <ele>390.544003</ele>
        <time>2019-03-10T17:40:23.991Z</time>
      </trkpt>
      <trkpt lat="48.798035" lon="11.238338">
        <ele>390.523032</ele>
        <time>2019-03-10T17:40:24.991Z</time>
      </trkpt>
      <trkpt lat="48.798051" lon="11.238508">
        <ele>390.482636</ele>
        <time>2019-03-10T17:40:25.991Z</time>
      </trkpt>
      <trkpt lat="48.798075" lon="11.238694">
        <ele>390.416728</ele>
        <time>2019-03-10T17:40:26.991Z</time>
      </trkpt>
      <trkpt lat="48.798076" lon="11.238873">
        <ele>390.354481</ele>
        <time>2019-03-10T17:40:27.991Z</time>
      </trkpt>
      <trkpt lat="48.798086" lon="11.239016">
        <ele>390.304475</ele>
        <time>2019-03-10T17:40:28.991Z</time>
      </trkpt>
      <trkpt lat="48.798112" lon="11.239270">
        <ele>390.215091</ele>
        <time>2019-03-10T17:40:30.990Z</time>
      </trkpt>
      <trkpt lat="48.798121" lon="11.239411">
        <ele>390.165830</ele>
        <time>2019-03-10T17:40:31.990Z</time>
      </trkpt>
      <trkpt lat="48.798135" lon="11.239605">
        <ele>390.097966</ele>
        <time>2019-03-10T17:40:33.990Z</time>
      </trkpt>
      <trkpt lat="48.798197" lon="11.239797">
        <ele>390.023610</ele>
        <time>2019-03-10T17:40:35.990Z</time>
      </trkpt>
      <trkpt lat="48.798268" lon="11.240017">
        <ele>389.938421</ele>
        <time>2019-03-10T17:40:37.990Z</time>
      </trkpt>
      <trkpt lat="48.798310" lon="11.240159">
        <ele>389.884293</ele>
        <time>2019-03-10T17:40:38.990Z</time>
      </trkpt>
      <trkpt lat="48.798331" lon="11.240310">
        <ele>389.830628</ele>
        <time>2019-03-10T17:40:39.990Z</time>
      </trkpt>
      <trkpt lat="48.798374" lon="11.240457">
        <ele>389.774697</ele>
        <time>2019-03-10T17:40:40.990Z</time>
      </trkpt>
      <trkpt lat="48.798424" lon="11.240606">
        <ele>389.716549</ele>
        <time>2019-03-10T17:40:41.990Z</time>
      </trkpt>
      <trkpt lat="48.798453" lon="11.240828">
        <ele>389.637849</ele>
        <time>2019-03-10T17:40:42.990Z</time>
      </trkpt>
      <trkpt lat="48.798486" lon="11.241027">
        <ele>389.566491</ele>
        <time>2019-03-10T17:40:43.990Z</time>
      </trkpt>
      <trkpt lat="48.798491" lon="11.241277">
        <ele>389.480708</ele>
        <time>2019-03-10T17:40:44.990Z</time>
      </trkpt>
      <trkpt lat="48.798592" lon="11.241351">
        <ele>389.422329</ele>
        <time>2019-03-10T17:40:45.990Z</time>
      </trkpt>
      <trkpt lat="48.798631" lon="11.241575">
        <ele>389.342883</ele>
        <time>2019-03-10T17:40:46.990Z</time>
      </trkpt>
      <trkpt lat="48.798641" lon="11.241867">
        <ele>389.242624</ele>
        <time>2019-03-10T17:40:47.990Z</time>
      </trkpt>
      <trkpt lat="48.798650" lon="11.242170">
        <ele>389.138621</ele>
        <time>2019-03-10T17:40:48.990Z</time>
      </trkpt>
      <trkpt lat="48.798656" lon="11.242434">
        <ele>389.048044</ele>
        <time>2019-03-10T17:40:49.990Z</time>
      </trkpt>
      <trkpt lat="48.798653" lon="11.242662">
        <ele>388.969849</ele>
        <time>2019-03-10T17:40:50.990Z</time>
      </trkpt>
      <trkpt lat="48.798643" lon="11.242926">
        <ele>388.879176</ele>
        <time>2019-03-10T17:40:51.990Z</time>
      </trkpt>
      <trkpt lat="48.798632" lon="11.243206">
        <ele>388.782995</ele>
        <time>2019-03-10T17:40:52.990Z</time>
      </trkpt>
      <trkpt lat="48.798611" lon="11.243461">
        <ele>388.694877</ele>
        <time>2019-03-10T17:40:53.990Z</time>
      </trkpt>
      <trkpt lat="48.798614" lon="11.243696">
        <ele>388.626400</ele>
        <time>2019-03-10T17:40:54.990Z</time>
      </trkpt>
      <trkpt lat="48.798623" lon="11.243913">
        <ele>388.614419</ele>
        <time>2019-03-10T17:40:55.990Z</time>
      </trkpt>
      <trkpt lat="48.798634" lon="11.244102">
        <ele>388.603963</ele>
        <time>2019-03-10T17:40:56.989Z</time>
      </trkpt>
      <trkpt lat="48.798688" lon="11.244288">
        <ele>388.592762</ele>
        <time>2019-03-10T17:40:57.989Z</time>
      </trkpt>
      <trkpt lat="48.798739" lon="11.244493">
        <ele>388.580687</ele>
        <time>2019-03-10T17:40:58.989Z</time>
      </trkpt>
      <trkpt lat="48.798775" lon="11.244692">
        <ele>388.569315</ele>
        <time>2019-03-10T17:40:59.989Z</time>
      </trkpt>
      <trkpt lat="48.798857" lon="11.244833">
        <ele>388.558950</ele>
        <time>2019-03-10T17:41:00.989Z</time>
      </trkpt>
      <trkpt lat="48.798938" lon="11.245010">
        <ele>388.547073</ele>
        <time>2019-03-10T17:41:01.989Z</time>
      </trkpt>
      <trkpt lat="48.799024" lon="11.245148">
        <ele>388.536605</ele>
        <time>2019-03-10T17:41:02.989Z</time>
      </trkpt>
      <trkpt lat="48.799113" lon="11.245259">
        <ele>388.526969</ele>
        <time>2019-03-10T17:41:03.989Z</time>
      </trkpt>
      <trkpt lat="48.799199" lon="11.245387">
        <ele>388.516894</ele>
        <time>2019-03-10T17:41:04.989Z</time>
      </trkpt>
      <trkpt lat="48.799290" lon="11.245521">
        <ele>388.506288</ele>
        <time>2019-03-10T17:41:05.989Z</time>
      </trkpt>
      <trkpt lat="48.799371" lon="11.245643">
        <ele>388.496743</ele>
        <time>2019-03-10T17:41:06.989Z</time>
      </trkpt>
      <trkpt lat="48.799453" lon="11.245770">
        <ele>388.486943</ele>
        <time>2019-03-10T17:41:07.989Z</time>
      </trkpt>
      <trkpt lat="48.799517" lon="11.245888">
        <ele>388.478520</ele>
        <time>2019-03-10T17:41:08.989Z</time>
      </trkpt>
      <trkpt lat="48.799546" lon="11.246099">
        <ele>388.453897</ele>
        <time>2019-03-10T17:41:10.989Z</time>
      </trkpt>
      <trkpt lat="48.799530" lon="11.246268">
        <ele>388.434158</ele>
        <time>2019-03-10T17:41:12.989Z</time>
      </trkpt>
      <trkpt lat="48.799529" lon="11.246412">
        <ele>388.417510</ele>
        <time>2019-03-10T17:41:15.989Z</time>
      </trkpt>
      <trkpt lat="48.799463" lon="11.246506">
        <ele>388.401627</ele>
        <time>2019-03-10T17:41:18.989Z</time>
      </trkpt>
      <trkpt lat="48.799363" lon="11.246554">
        <ele>388.383220</ele>
        <time>2019-03-10T17:41:21.989Z</time>
      </trkpt>
      <trkpt lat="48.799169" lon="11.246628">
        <ele>388.348113</ele>
        <time>2019-03-10T17:41:23.988Z</time>
      </trkpt>
      <trkpt lat="48.799036" lon="11.246649">
        <ele>388.324645</ele>
        <time>2019-03-10T17:41:24.988Z</time>
      </trkpt>
      <trkpt lat="48.798926" lon="11.246683">
        <ele>388.304943</ele>
        <time>2019-03-10T17:41:25.988Z</time>
      </trkpt>
      <trkpt lat="48.798809" lon="11.246775">
        <ele>388.281818</ele>
        <time>2019-03-10T17:41:26.988Z</time>
      </trkpt>
      <trkpt lat="48.798652" lon="11.246841">
        <ele>388.253226</ele>
        <time>2019-03-10T17:41:28.988Z</time>
      </trkpt>
      <trkpt lat="48.798517" lon="11.246973">
        <ele>388.225043</ele>
        <time>2019-03-10T17:41:30.988Z</time>
      </trkpt>
      <trkpt lat="48.798371" lon="11.247069">
        <ele>388.197119</ele>
        <time>2019-03-10T17:41:32.988Z</time>
      </trkpt>
      <trkpt lat="48.798313" lon="11.247182">
        <ele>388.180558</ele>
        <time>2019-03-10T17:41:33.988Z</time>
      </trkpt>
      <trkpt lat="48.798238" lon="11.247300">
        <ele>388.163110</ele>
        <time>2019-03-10T17:41:34.988Z</time>
      </trkpt>
      <trkpt lat="48.798168" lon="11.247421">
        <ele>388.173309</ele>
        <time>2019-03-10T17:41:35.988Z</time>
      </trkpt>
      <trkpt lat="48.798075" lon="11.247567">
        <ele>388.186173</ele>
        <time>2019-03-10T17:41:36.988Z</time>
      </trkpt>
      <trkpt lat="48.797955" lon="11.247625">
        <ele>388.198282</ele>
        <time>2019-03-10T17:41:37.988Z</time>
      </trkpt>
      <trkpt lat="48.797866" lon="11.247768">
        <ele>388.210742</ele>
        <time>2019-03-10T17:41:38.988Z</time>
      </trkpt>
      <trkpt lat="48.797787" lon="11.247935">
        <ele>388.223765</ele>
        <time>2019-03-10T17:41:39.988Z</time>
      </trkpt>
      <trkpt lat="48.797740" lon="11.248224">
        <ele>388.242619</ele>
        <time>2019-03-10T17:41:41.988Z</time>
      </trkpt>
      <trkpt lat="48.797679" lon="11.248365">
        <ele>388.253303</ele>
        <time>2019-03-10T17:41:42.988Z</time>
      </trkpt>
      <trkpt lat="48.797632" lon="11.248539">
        <ele>388.265214</ele>
        <time>2019-03-10T17:41:43.988Z</time>
      </trkpt>
      <trkpt lat="48.797608" lon="11.248708">
        <ele>388.276164</ele>
        <time>2019-03-10T17:41:44.987Z</time>
      </trkpt>
      <trkpt lat="48.797567" lon="11.248885">
        <ele>388.288048</ele>
        <time>2019-03-10T17:41:45.987Z</time>
      </trkpt>
      <trkpt lat="48.797528" lon="11.249055">
        <ele>388.299450</ele>
        <time>2019-03-10T17:41:46.987Z</time>
      </trkpt>
      <trkpt lat="48.797502" lon="11.249218">
        <ele>388.310072</ele>
        <time>2019-03-10T17:41:47.987Z</time>
      </trkpt>
      <trkpt lat="48.797470" lon="11.249378">
        <ele>388.320663</ele>
        <time>2019-03-10T17:41:48.987Z</time>
      </trkpt>
      <trkpt lat="48.797450" lon="11.249535">
        <ele>388.330791</ele>
        <time>2019-03-10T17:41:49.987Z</time>
      </trkpt>
      <trkpt lat="48.797416" lon="11.249689">
        <ele>388.347017</ele>
        <time>2019-03-10T17:41:50.987Z</time>
      </trkpt>
      <trkpt lat="48.797386" lon="11.249847">
        <ele>388.368557</ele>
        <time>2019-03-10T17:41:51.987Z</time>
      </trkpt>
      <trkpt lat="48.797364" lon="11.250006">
        <ele>388.389840</ele>
        <time>2019-03-10T17:41:52.987Z</time>
      </trkpt>
      <trkpt lat="48.797354" lon="11.250170">
        <ele>388.411416</ele>
        <time>2019-03-10T17:41:53.987Z</time>
      </trkpt>
      <trkpt lat="48.797329" lon="11.250311">
        <ele>388.430544</ele>
        <time>2019-03-10T17:41:54.987Z</time>
      </trkpt>
      <trkpt lat="48.797308" lon="11.250483">
        <ele>388.453459</ele>
        <time>2019-03-10T17:41:55.987Z</time>
      </trkpt>
      <trkpt lat="48.797306" lon="11.250629">
        <ele>388.472589</ele>
        <time>2019-03-10T17:41:56.987Z</time>
      </trkpt>
      <trkpt lat="48.797288" lon="11.250798">
        <ele>388.495015</ele>
        <time>2019-03-10T17:41:57.987Z</time>
      </trkpt>
      <trkpt lat="48.797263" lon="11.250975">
        <ele>388.518728</ele>
        <time>2019-03-10T17:41:58.987Z</time>
      </trkpt>
      <trkpt lat="48.797242" lon="11.251149">
        <ele>388.541901</ele>
        <time>2019-03-10T17:41:59.987Z</time>
      </trkpt>
      <trkpt lat="48.797224" lon="11.251336">
        <ele>388.566658</ele>
        <time>2019-03-10T17:42:00.987Z</time>
      </trkpt>
      <trkpt lat="48.797196" lon="11.251502">
        <ele>388.589105</ele>
        <time>2019-03-10T17:42:01.987Z</time>
      </trkpt>
      <trkpt lat="48.797169" lon="11.251681">
        <ele>388.613160</ele>
        <time>2019-03-10T17:42:02.987Z</time>
      </trkpt>
      <trkpt lat="48.797162" lon="11.251862">
        <ele>388.636912</ele>
        <time>2019-03-10T17:42:03.987Z</time>
      </trkpt>
      <trkpt lat="48.797141" lon="11.252042">
        <ele>388.660858</ele>
        <time>2019-03-10T17:42:04.987Z</time>
      </trkpt>
      <trkpt lat="48.797116" lon="11.252216">
        <ele>388.684188</ele>
        <time>2019-03-10T17:42:05.987Z</time>
      </trkpt>
      <trkpt lat="48.797091" lon="11.252397">
        <ele>388.701809</ele>
        <time>2019-03-10T17:42:06.987Z</time>
      </trkpt>
      <trkpt lat="48.797078" lon="11.252562">
        <ele>388.714123</ele>
        <time>2019-03-10T17:42:07.987Z</time>
      </trkpt>
      <trkpt lat="48.797064" lon="11.252742">
        <ele>388.727555</ele>
        <time>2019-03-10T17:42:08.987Z</time>
      </trkpt>
      <trkpt lat="48.797055" lon="11.252919">
        <ele>388.740711</ele>
        <time>2019-03-10T17:42:09.987Z</time>
      </trkpt>
      <trkpt lat="48.797035" lon="11.253111">
        <ele>388.755116</ele>
        <time>2019-03-10T17:42:10.987Z</time>
      </trkpt>
      <trkpt lat="48.797036" lon="11.253322">
        <ele>388.770752</ele>
        <time>2019-03-10T17:42:11.987Z</time>
      </trkpt>
      <trkpt lat="48.797019" lon="11.253528">
        <ele>388.786137</ele>
        <time>2019-03-10T17:42:12.987Z</time>
      </trkpt>
      <trkpt lat="48.797015" lon="11.253722">
        <ele>388.800521</ele>
        <time>2019-03-10T17:42:13.987Z</time>
      </trkpt>
      <trkpt lat="48.796997" lon="11.253925">
        <ele>388.815700</ele>
        <time>2019-03-10T17:42:14.987Z</time>
      </trkpt>
      <trkpt lat="48.796992" lon="11.254124">
        <ele>388.830458</ele>
        <time>2019-03-10T17:42:15.986Z</time>
      </trkpt>
      <trkpt lat="48.796985" lon="11.254317">
        <ele>388.844782</ele>
        <time>2019-03-10T17:42:16.986Z</time>
      </trkpt>
      <trkpt lat="48.796981" lon="11.254504">
        <ele>388.858647</ele>
        <time>2019-03-10T17:42:17.986Z</time>
      </trkpt>
      <trkpt lat="48.797001" lon="11.254676">
        <ele>388.871590</ele>
        <time>2019-03-10T17:42:18.986Z</time>
      </trkpt>
      <trkpt lat="48.797003" lon="11.254861">
        <ele>388.885302</ele>
        <time>2019-03-10T17:42:19.986Z</time>
      </trkpt>
      <trkpt lat="48.797013" lon="11.255053">
        <ele>388.852731</ele>
        <time>2019-03-10T17:42:20.986Z</time>
      </trkpt>
      <trkpt lat="48.797017" lon="11.255251">
        <ele>388.696583</ele>
        <time>2019-03-10T17:42:21.986Z</time>
      </trkpt>
      <trkpt lat="48.797024" lon="11.255439">
        <ele>388.548153</ele>
        <time>2019-03-10T17:42:22.986Z</time>
      </trkpt>
      <trkpt lat="48.797027" lon="11.255628">
        <ele>388.399129</ele>
        <time>2019-03-10T17:42:23.986Z</time>
      </trkpt>
      <trkpt lat="48.797039" lon="11.255809">
        <ele>388.255733</ele>
        <time>2019-03-10T17:42:24.986Z</time>
      </trkpt>
      <trkpt lat="48.797048" lon="11.255995">
        <ele>388.108722</ele>
        <time>2019-03-10T17:42:25.986Z</time>
      </trkpt>
      <trkpt lat="48.797048" lon="11.256177">
        <ele>387.965259</ele>
        <time>2019-03-10T17:42:26.986Z</time>
      </trkpt>
      <trkpt lat="48.797056" lon="11.256364">
        <ele>387.817544</ele>
        <time>2019-03-10T17:42:27.986Z</time>
      </trkpt>
      <trkpt lat="48.797064" lon="11.256536">
        <ele>387.681626</ele>
        <time>2019-03-10T17:42:28.986Z</time>
      </trkpt>
      <trkpt lat="48.797071" lon="11.256719">
        <ele>387.537131</ele>
        <time>2019-03-10T17:42:29.986Z</time>
      </trkpt>
      <trkpt lat="48.797085" lon="11.256885">
        <ele>387.405212</ele>
        <time>2019-03-10T17:42:30.986Z</time>
      </trkpt>
      <trkpt lat="48.797096" lon="11.257052">
        <ele>387.272917</ele>
        <time>2019-03-10T17:42:31.986Z</time>
      </trkpt>
      <trkpt lat="48.797102" lon="11.257215">
        <ele>387.144230</ele>
        <time>2019-03-10T17:42:32.986Z</time>
      </trkpt>
      <trkpt lat="48.797110" lon="11.257371">
        <ele>387.020890</ele>
        <time>2019-03-10T17:42:33.986Z</time>
      </trkpt>
      <trkpt lat="48.797123" lon="11.257540">
        <ele>386.886769</ele>
        <time>2019-03-10T17:42:34.986Z</time>
      </trkpt>
      <trkpt lat="48.797122" lon="11.257711">
        <ele>386.751972</ele>
        <time>2019-03-10T17:42:35.986Z</time>
      </trkpt>
      <trkpt lat="48.797139" lon="11.257864">
        <ele>386.638748</ele>
        <time>2019-03-10T17:42:36.986Z</time>
      </trkpt>
      <trkpt lat="48.797128" lon="11.258039">
        <ele>386.511260</ele>
        <time>2019-03-10T17:42:37.986Z</time>
      </trkpt>
      <trkpt lat="48.797158" lon="11.258190">
        <ele>386.396881</ele>
        <time>2019-03-10T17:42:41.985Z</time>
      </trkpt>
      <trkpt lat="48.797171" lon="11.258362">
        <ele>386.271327</ele>
        <time>2019-03-10T17:42:42.985Z</time>
      </trkpt>
      <trkpt lat="48.797162" lon="11.258563">
        <ele>386.125224</ele>
        <time>2019-03-10T17:42:43.985Z</time>
      </trkpt>
      <trkpt lat="48.797151" lon="11.258800">
        <ele>385.952923</ele>
        <time>2019-03-10T17:42:44.985Z</time>
      </trkpt>
      <trkpt lat="48.797213" lon="11.258977">
        <ele>385.807541</ele>
        <time>2019-03-10T17:42:45.985Z</time>
      </trkpt>
      <trkpt lat="48.797238" lon="11.259133">
        <ele>385.691109</ele>
        <time>2019-03-10T17:42:46.985Z</time>
      </trkpt>
      <trkpt lat="48.797241" lon="11.259273">
        <ele>385.589526</ele>
        <time>2019-03-10T17:42:47.985Z</time>
      </trkpt>
      <trkpt lat="48.797269" lon="11.259413">
        <ele>385.483421</ele>
        <time>2019-03-10T17:42:48.985Z</time>
      </trkpt>
      <trkpt lat="48.797289" lon="11.259562">
        <ele>385.373145</ele>
        <time>2019-03-10T17:42:49.985Z</time>
      </trkpt>
      <trkpt lat="48.797287" lon="11.259712">
        <ele>385.264341</ele>
        <time>2019-03-10T17:42:50.985Z</time>
      </trkpt>
      <trkpt lat="48.797326" lon="11.259843">
        <ele>385.160087</ele>
        <time>2019-03-10T17:42:51.985Z</time>
      </trkpt>
      <trkpt lat="48.797341" lon="11.260001">
        <ele>385.044321</ele>
        <time>2019-03-10T17:42:52.985Z</time>
      </trkpt>
      <trkpt lat="48.797331" lon="11.260210">
        <ele>384.892354</ele>
        <time>2019-03-10T17:42:54.985Z</time>
      </trkpt>
      <trkpt lat="48.797307" lon="11.260415">
        <ele>384.758794</ele>
        <time>2019-03-10T17:42:56.985Z</time>
      </trkpt>
      <trkpt lat="48.797295" lon="11.260559">
        <ele>384.738127</ele>
        <time>2019-03-10T17:43:01.985Z</time>
      </trkpt>
      <trkpt lat="48.796944" lon="11.260689">
        <ele>384.660031</ele>
        <time>2019-03-10T17:43:21.984Z</time>
      </trkpt>
      <trkpt lat="48.796792" lon="11.260715">
        <ele>384.626967</ele>
        <time>2019-03-10T17:43:23.984Z</time>
      </trkpt>
      <trkpt lat="48.796654" lon="11.260762">
        <ele>384.596396</ele>
        <time>2019-03-10T17:43:25.984Z</time>
      </trkpt>
      <trkpt lat="48.796516" lon="11.260832">
        <ele>384.564945</ele>
        <time>2019-03-10T17:43:27.984Z</time>
      </trkpt>
      <trkpt lat="48.796419" lon="11.260950">
        <ele>384.538077</ele>
        <time>2019-03-10T17:43:29.984Z</time>
      </trkpt>
      <trkpt lat="48.796341" lon="11.261075">
        <ele>384.513560</ele>
        <time>2019-03-10T17:43:31.984Z</time>
      </trkpt>
      <trkpt lat="48.796283" lon="11.261189">
        <ele>384.493050</ele>
        <time>2019-03-10T17:43:32.984Z</time>
      </trkpt>
      <trkpt lat="48.796279" lon="11.261428">
        <ele>384.459008</ele>
        <time>2019-03-10T17:43:34.983Z</time>
      </trkpt>
      <trkpt lat="48.796208" lon="11.261516">
        <ele>384.439195</ele>
        <time>2019-03-10T17:43:41.983Z</time>
      </trkpt>
      <trkpt lat="48.795823" lon="11.261539">
        <ele>384.331858</ele>
        <time>2019-03-10T17:44:36.997Z</time>
      </trkpt>
      <trkpt lat="48.795652" lon="11.261538">
        <ele>384.246461</ele>
        <time>2019-03-10T17:44:38.998Z</time>
      </trkpt>
      <trkpt lat="48.795472" lon="11.261574">
        <ele>384.155793</ele>
        <time>2019-03-10T17:44:40.998Z</time>
      </trkpt>
      <trkpt lat="48.795281" lon="11.261597">
        <ele>384.060109</ele>
        <time>2019-03-10T17:44:42.998Z</time>
      </trkpt>
      <trkpt lat="48.795183" lon="11.261611">
        <ele>384.010952</ele>
        <time>2019-03-10T17:44:43.998Z</time>
      </trkpt>
      <trkpt lat="48.795086" lon="11.261639">
        <ele>383.961643</ele>
        <time>2019-03-10T17:44:44.998Z</time>
      </trkpt>
      <trkpt lat="48.794978" lon="11.261634">
        <ele>383.907684</ele>
        <time>2019-03-10T17:44:45.998Z</time>
      </trkpt>
      <trkpt lat="48.794787" lon="11.261681">
        <ele>383.811054</ele>
        <time>2019-03-10T17:44:48.998Z</time>
      </trkpt>
      <trkpt lat="48.794662" lon="11.261697">
        <ele>383.748409</ele>
        <time>2019-03-10T17:44:49.998Z</time>
      </trkpt>
      <trkpt lat="48.794549" lon="11.261711">
        <ele>383.691789</ele>
        <time>2019-03-10T17:44:50.998Z</time>
      </trkpt>
      <trkpt lat="48.794450" lon="11.261726">
        <ele>383.642104</ele>
        <time>2019-03-10T17:44:51.998Z</time>
      </trkpt>
      <trkpt lat="48.794341" lon="11.261727">
        <ele>383.587669</ele>
        <time>2019-03-10T17:44:52.998Z</time>
      </trkpt>
      <trkpt lat="48.794252" lon="11.261743">
        <ele>383.542912</ele>
        <time>2019-03-10T17:44:53.998Z</time>
      </trkpt>
      <trkpt lat="48.794163" lon="11.261770">
        <ele>383.497587</ele>
        <time>2019-03-10T17:44:54.998Z</time>
      </trkpt>
      <trkpt lat="48.794055" lon="11.261790">
        <ele>383.464468</ele>
        <time>2019-03-10T17:44:55.998Z</time>
      </trkpt>
      <trkpt lat="48.793955" lon="11.261795">
        <ele>383.446837</ele>
        <time>2019-03-10T17:44:56.998Z</time>
      </trkpt>
      <trkpt lat="48.793855" lon="11.261876">
        <ele>383.426863</ele>
        <time>2019-03-10T17:44:57.998Z</time>
      </trkpt>
      <trkpt lat="48.793745" lon="11.261917">
        <ele>383.406903</ele>
        <time>2019-03-10T17:44:59.998Z</time>
      </trkpt>
      <trkpt lat="48.793606" lon="11.262020">
        <ele>383.379647</ele>
        <time>2019-03-10T17:45:01.997Z</time>
      </trkpt>
      <trkpt lat="48.793464" lon="11.262082">
        <ele>383.353609</ele>
        <time>2019-03-10T17:45:03.997Z</time>
      </trkpt>
      <trkpt lat="48.793358" lon="11.262078">
        <ele>383.334925</ele>
        <time>2019-03-10T17:45:05.997Z</time>
      </trkpt>
      <trkpt lat="48.793275" lon="11.261913">
        <ele>383.310825</ele>
        <time>2019-03-10T17:45:07.997Z</time>
      </trkpt>
      <trkpt lat="48.793226" lon="11.261775">
        <ele>383.292626</ele>
        <time>2019-03-10T17:45:09.997Z</time>
      </trkpt>
      <trkpt lat="48.793172" lon="11.261644">
        <ele>383.274686</ele>
        <time>2019-03-10T17:45:11.997Z</time>
      </trkpt>
      <trkpt lat="48.793106" lon="11.261546">
        <ele>383.258417</ele>
        <time>2019-03-10T17:45:13.997Z</time>
      </trkpt>
      <trkpt lat="48.793027" lon="11.261462">
        <ele>383.241420</ele>
        <time>2019-03-10T17:45:15.997Z</time>
      </trkpt>
      <trkpt lat="48.792899" lon="11.261439">
        <ele>383.218707</ele>
        <time>2019-03-10T17:45:17.997Z</time>
      </trkpt>
      <trkpt lat="48.792767" lon="11.261415">
        <ele>383.195280</ele>
        <time>2019-03-10T17:45:19.997Z</time>
      </trkpt>
      <trkpt lat="48.792676" lon="11.261407">
        <ele>383.179218</ele>
        <time>2019-03-10T17:45:20.997Z</time>
      </trkpt>
      <trkpt lat="48.792574" lon="11.261376">
        <ele>383.160887</ele>
        <time>2019-03-10T17:45:21.997Z</time>
      </trkpt>
      <trkpt lat="48.792378" lon="11.261305">
        <ele>383.256455</ele>
        <time>2019-03-10T17:45:23.997Z</time>
      </trkpt>
      <trkpt lat="48.792287" lon="11.261303">
        <ele>383.302785</ele>
        <time>2019-03-10T17:45:24.997Z</time>
      </trkpt>
      <trkpt lat="48.792139" lon="11.261269">
        <ele>383.378984</ele>
        <time>2019-03-10T17:45:25.997Z</time>
      </trkpt>
      <trkpt lat="48.792021" lon="11.261260">
        <ele>383.439129</ele>
        <time>2019-03-10T17:45:26.997Z</time>
      </trkpt>
      <trkpt lat="48.791900" lon="11.261264">
        <ele>383.500740</ele>
        <time>2019-03-10T17:45:27.997Z</time>
      </trkpt>
      <trkpt lat="48.791805" lon="11.261313">
        <ele>383.551817</ele>
        <time>2019-03-10T17:45:28.997Z</time>
      </trkpt>
      <trkpt lat="48.791664" lon="11.261295">
        <ele>383.623848</ele>
        <time>2019-03-10T17:45:29.997Z</time>
      </trkpt>
      <trkpt lat="48.791546" lon="11.261278">
        <ele>383.684187</ele>
        <time>2019-03-10T17:45:30.997Z</time>
      </trkpt>
      <trkpt lat="48.791422" lon="11.261240">
        <ele>383.748584</ele>
        <time>2019-03-10T17:45:31.997Z</time>
      </trkpt>
      <trkpt lat="48.791331" lon="11.261244">
        <ele>383.794928</ele>
        <time>2019-03-10T17:45:32.997Z</time>
      </trkpt>
      <trkpt lat="48.791231" lon="11.261257">
        <ele>383.846021</ele>
        <time>2019-03-10T17:45:33.997Z</time>
      </trkpt>
      <trkpt lat="48.791087" lon="11.261276">
        <ele>383.919602</ele>
        <time>2019-03-10T17:45:35.996Z</time>
      </trkpt>
      <trkpt lat="48.790986" lon="11.261276">
        <ele>383.971018</ele>
        <time>2019-03-10T17:45:36.996Z</time>
      </trkpt>
      <trkpt lat="48.790880" lon="11.261269">
        <ele>384.025029</ele>
        <time>2019-03-10T17:45:37.996Z</time>
      </trkpt>
      <trkpt lat="48.790761" lon="11.261255">
        <ele>384.086960</ele>
        <time>2019-03-10T17:45:38.996Z</time>
      </trkpt>
      <trkpt lat="48.790643" lon="11.261243">
        <ele>384.153520</ele>
        <time>2019-03-10T17:45:39.996Z</time>
      </trkpt>
      <trkpt lat="48.790523" lon="11.261241">
        <ele>384.221061</ele>
        <time>2019-03-10T17:45:40.996Z</time>
      </trkpt>
      <trkpt lat="48.790412" lon="11.261239">
        <ele>384.283537</ele>
        <time>2019-03-10T17:45:41.996Z</time>
      </trkpt>
      <trkpt lat="48.790304" lon="11.261252">
        <ele>384.344511</ele>
        <time>2019-03-10T17:45:42.996Z</time>
      </trkpt>
      <trkpt lat="48.790194" lon="11.261236">
        <ele>384.406704</ele>
        <time>2019-03-10T17:45:43.996Z</time>
      </trkpt>
      <trkpt lat="48.790090" lon="11.261235">
        <ele>384.465237</ele>
        <time>2019-03-10T17:45:44.996Z</time>
      </trkpt>
      <trkpt lat="48.789989" lon="11.261229">
        <ele>384.522124</ele>
        <time>2019-03-10T17:45:45.996Z</time>
      </trkpt>
      <trkpt lat="48.789830" lon="11.261243">
        <ele>384.611761</ele>
        <time>2019-03-10T17:45:47.996Z</time>
      </trkpt>
      <trkpt lat="48.789710" lon="11.261270">
        <ele>384.680036</ele>
        <time>2019-03-10T17:45:49.996Z</time>
      </trkpt>
      <trkpt lat="48.789609" lon="11.261303">
        <ele>384.738182</ele>
        <time>2019-03-10T17:45:57.996Z</time>
      </trkpt>
      <trkpt lat="48.789635" lon="11.261153">
        <ele>384.795694</ele>
        <time>2019-03-10T17:46:00.995Z</time>
      </trkpt>
      <trkpt lat="48.789675" lon="11.260963">
        <ele>384.869654</ele>
        <time>2019-03-10T17:46:02.995Z</time>
      </trkpt>
      <trkpt lat="48.789717" lon="11.260805">
        <ele>384.932828</ele>
        <time>2019-03-10T17:46:04.995Z</time>
      </trkpt>
      <trkpt lat="48.789811" lon="11.260562">
        <ele>385.037314</ele>
        <time>2019-03-10T17:46:06.995Z</time>
      </trkpt>
      <trkpt lat="48.789853" lon="11.260432">
        <ele>385.091539</ele>
        <time>2019-03-10T17:46:07.995Z</time>
      </trkpt>
      <trkpt lat="48.789887" lon="11.260149">
        <ele>385.212545</ele>
        <time>2019-03-10T17:46:09.995Z</time>
      </trkpt>
      <trkpt lat="48.789908" lon="11.259989">
        <ele>385.281171</ele>
        <time>2019-03-10T17:46:10.995Z</time>
      </trkpt>
      <trkpt lat="48.789923" lon="11.259818">
        <ele>385.353736</ele>
        <time>2019-03-10T17:46:11.995Z</time>
      </trkpt>
      <trkpt lat="48.789928" lon="11.259658">
        <ele>385.421115</ele>
        <time>2019-03-10T17:46:12.995Z</time>
      </trkpt>
      <trkpt lat="48.789934" lon="11.259486">
        <ele>385.493567</ele>
        <time>2019-03-10T17:46:13.995Z</time>
      </trkpt>
      <trkpt lat="48.789972" lon="11.259324">
        <ele>385.565902</ele>
        <time>2019-03-10T17:46:14.995Z</time>
      </trkpt>
      <trkpt lat="48.790000" lon="11.259158">
        <ele>385.637982</ele>
        <time>2019-03-10T17:46:15.995Z</time>
      </trkpt>
      <trkpt lat="48.790030" lon="11.258998">
        <ele>385.707957</ele>
        <time>2019-03-10T17:46:16.995Z</time>
      </trkpt>
      <trkpt lat="48.790079" lon="11.258782">
        <ele>385.804052</ele>
        <time>2019-03-10T17:46:18.995Z</time>
      </trkpt>
      <trkpt lat="48.790112" lon="11.258627">
        <ele>385.872572</ele>
        <time>2019-03-10T17:46:20.995Z</time>
      </trkpt>
      <trkpt lat="48.790170" lon="11.258521">
        <ele>385.930533</ele>
        <time>2019-03-10T17:46:31.994Z</time>
      </trkpt>
      <trkpt lat="48.790228" lon="11.258303">
        <ele>386.029428</ele>
        <time>2019-03-10T17:46:36.994Z</time>
      </trkpt>
      <trkpt lat="48.790255" lon="11.258114">
        <ele>386.110777</ele>
        <time>2019-03-10T17:46:38.994Z</time>
      </trkpt>
      <trkpt lat="48.790307" lon="11.257866">
        <ele>386.220253</ele>
        <time>2019-03-10T17:46:40.994Z</time>
      </trkpt>
      <trkpt lat="48.790348" lon="11.257719">
        <ele>386.215386</ele>
        <time>2019-03-10T17:46:41.994Z</time>
      </trkpt>
      <trkpt lat="48.790380" lon="11.257556">
        <ele>386.187854</ele>
        <time>2019-03-10T17:46:42.994Z</time>
      </trkpt>
      <trkpt lat="48.790420" lon="11.257388">
        <ele>386.158938</ele>
        <time>2019-03-10T17:46:43.994Z</time>
      </trkpt>
      <trkpt lat="48.790453" lon="11.257206">
        <ele>386.128382</ele>
        <time>2019-03-10T17:46:44.994Z</time>
      </trkpt>
      <trkpt lat="48.790496" lon="11.257028">
        <ele>386.097693</ele>
        <time>2019-03-10T17:46:45.994Z</time>
      </trkpt>
      <trkpt lat="48.790535" lon="11.256838">
        <ele>386.065479</ele>
        <time>2019-03-10T17:46:46.994Z</time>
      </trkpt>
      <trkpt lat="48.790577" lon="11.256643">
        <ele>386.032270</ele>
        <time>2019-03-10T17:46:47.994Z</time>
      </trkpt>
      <trkpt lat="48.790614" lon="11.256440">
        <ele>385.998176</ele>
        <time>2019-03-10T17:46:48.994Z</time>
      </trkpt>
      <trkpt lat="48.790663" lon="11.256234">
        <ele>385.962723</ele>
        <time>2019-03-10T17:46:49.994Z</time>
      </trkpt>
      <trkpt lat="48.790699" lon="11.256040">
        <ele>385.930098</ele>
        <time>2019-03-10T17:46:50.994Z</time>
      </trkpt>
      <trkpt lat="48.790747" lon="11.255839">
        <ele>385.895490</ele>
        <time>2019-03-10T17:46:51.994Z</time>
      </trkpt>
      <trkpt lat="48.790793" lon="11.255643">
        <ele>385.861811</ele>
        <time>2019-03-10T17:46:52.994Z</time>
      </trkpt>
      <trkpt lat="48.790838" lon="11.255448">
        <ele>385.828365</ele>
        <time>2019-03-10T17:46:53.994Z</time>
      </trkpt>
      <trkpt lat="48.790891" lon="11.255270">
        <ele>385.796746</ele>
        <time>2019-03-10T17:46:54.994Z</time>
      </trkpt>
      <trkpt lat="48.790937" lon="11.255093">
        <ele>385.699527</ele>
        <time>2019-03-10T17:46:55.994Z</time>
      </trkpt>
      <trkpt lat="48.790985" lon="11.254947">
        <ele>385.609371</ele>
        <time>2019-03-10T17:46:56.994Z</time>
      </trkpt>
      <trkpt lat="48.791027" lon="11.254798">
        <ele>385.519824</ele>
        <time>2019-03-10T17:46:57.994Z</time>
      </trkpt>
      <trkpt lat="48.791039" lon="11.254651">
        <ele>385.437981</ele>
        <time>2019-03-10T17:46:58.994Z</time>
      </trkpt>
      <trkpt lat="48.791049" lon="11.254489">
        <ele>385.348079</ele>
        <time>2019-03-10T17:46:59.993Z</time>
      </trkpt>
      <trkpt lat="48.791074" lon="11.254329">
        <ele>385.257222</ele>
        <time>2019-03-10T17:47:00.993Z</time>
      </trkpt>
      <trkpt lat="48.791053" lon="11.254133">
        <ele>385.147503</ele>
        <time>2019-03-10T17:47:02.993Z</time>
      </trkpt>
      <trkpt lat="48.791068" lon="11.253987">
        <ele>385.065858</ele>
        <time>2019-03-10T17:47:03.993Z</time>
      </trkpt>
      <trkpt lat="48.791078" lon="11.253832">
        <ele>384.979806</ele>
        <time>2019-03-10T17:47:04.993Z</time>
      </trkpt>
      <trkpt lat="48.791055" lon="11.253663">
        <ele>384.884457</ele>
        <time>2019-03-10T17:47:05.993Z</time>
      </trkpt>
      <trkpt lat="48.791044" lon="11.253497">
        <ele>384.792274</ele>
        <time>2019-03-10T17:47:06.993Z</time>
      </trkpt>
      <trkpt lat="48.791028" lon="11.253350">
        <ele>384.709950</ele>
        <time>2019-03-10T17:47:07.993Z</time>
      </trkpt>
      <trkpt lat="48.790996" lon="11.253180">
        <ele>384.612261</ele>
        <time>2019-03-10T17:47:08.993Z</time>
      </trkpt>
      <trkpt lat="48.791001" lon="11.252992">
        <ele>384.508300</ele>
        <time>2019-03-10T17:47:09.993Z</time>
      </trkpt>
      <trkpt lat="48.790962" lon="11.252777">
        <ele>384.385085</ele>
        <time>2019-03-10T17:47:10.993Z</time>
      </trkpt>
      <trkpt lat="48.790900" lon="11.252548">
        <ele>384.338423</ele>
        <time>2019-03-10T17:47:12.993Z</time>
      </trkpt>
      <trkpt lat="48.790876" lon="11.252255">
        <ele>384.576118</ele>
        <time>2019-03-10T17:47:14.993Z</time>
      </trkpt>
      <trkpt lat="48.790847" lon="11.252120">
        <ele>384.690432</ele>
        <time>2019-03-10T17:47:15.993Z</time>
      </trkpt>
      <trkpt lat="48.790867" lon="11.251958">
        <ele>384.823120</ele>
        <time>2019-03-10T17:47:16.993Z</time>
      </trkpt>
      <trkpt lat="48.790863" lon="11.251802">
        <ele>384.948803</ele>
        <time>2019-03-10T17:47:17.993Z</time>
      </trkpt>
      <trkpt lat="48.790840" lon="11.251625">
        <ele>385.094042</ele>
        <time>2019-03-10T17:47:18.993Z</time>
      </trkpt>
      <trkpt lat="48.790833" lon="11.251483">
        <ele>385.208679</ele>
        <time>2019-03-10T17:47:19.993Z</time>
      </trkpt>
      <trkpt lat="48.790830" lon="11.251335">
        <ele>385.327883</ele>
        <time>2019-03-10T17:47:20.993Z</time>
      </trkpt>
      <trkpt lat="48.790831" lon="11.251170">
        <ele>385.460722</ele>
        <time>2019-03-10T17:47:21.993Z</time>
      </trkpt>
      <trkpt lat="48.790828" lon="11.251011">
        <ele>385.588777</ele>
        <time>2019-03-10T17:47:22.993Z</time>
      </trkpt>
      <trkpt lat="48.790813" lon="11.250829">
        <ele>385.736438</ele>
        <time>2019-03-10T17:47:23.993Z</time>
      </trkpt>
      <trkpt lat="48.790812" lon="11.250664">
        <ele>385.869277</ele>
        <time>2019-03-10T17:47:24.993Z</time>
      </trkpt>
      <trkpt lat="48.790811" lon="11.250514">
        <ele>385.990041</ele>
        <time>2019-03-10T17:47:25.993Z</time>
      </trkpt>
      <trkpt lat="48.790795" lon="11.250365">
        <ele>386.111577</ele>
        <time>2019-03-10T17:47:26.993Z</time>
      </trkpt>
      <trkpt lat="48.790768" lon="11.250095">
        <ele>386.331430</ele>
        <time>2019-03-10T17:47:28.992Z</time>
      </trkpt>
      <trkpt lat="48.790723" lon="11.249941">
        <ele>386.467056</ele>
        <time>2019-03-10T17:47:29.992Z</time>
      </trkpt>
      <trkpt lat="48.790639" lon="11.249842">
        <ele>386.640968</ele>
        <time>2019-03-10T17:47:30.992Z</time>
      </trkpt>
      <trkpt lat="48.790566" lon="11.249716">
        <ele>386.828072</ele>
        <time>2019-03-10T17:47:31.992Z</time>
      </trkpt>
      <trkpt lat="48.790427" lon="11.249563">
        <ele>387.118692</ele>
        <time>2019-03-10T17:47:33.992Z</time>
      </trkpt>
      <trkpt lat="48.790348" lon="11.249450">
        <ele>387.302424</ele>
        <time>2019-03-10T17:47:34.992Z</time>
      </trkpt>
      <trkpt lat="48.790250" lon="11.249347">
        <ele>387.504181</ele>
        <time>2019-03-10T17:47:35.992Z</time>
      </trkpt>
      <trkpt lat="48.790122" lon="11.249219">
        <ele>387.763624</ele>
        <time>2019-03-10T17:47:36.992Z</time>
      </trkpt>
      <trkpt lat="48.790011" lon="11.249146">
        <ele>387.968379</ele>
        <time>2019-03-10T17:47:37.992Z</time>
      </trkpt>
      <trkpt lat="48.789892" lon="11.249071">
        <ele>388.186470</ele>
        <time>2019-03-10T17:47:38.992Z</time>
      </trkpt>
      <trkpt lat="48.789818" lon="11.248979">
        <ele>388.348374</ele>
        <time>2019-03-10T17:47:39.992Z</time>
      </trkpt>
      <trkpt lat="48.789747" lon="11.248868">
        <ele>388.520893</ele>
        <time>2019-03-10T17:47:40.992Z</time>
      </trkpt>
      <trkpt lat="48.789692" lon="11.248743">
        <ele>388.688510</ele>
        <time>2019-03-10T17:47:41.992Z</time>
      </trkpt>
      <trkpt lat="48.789680" lon="11.248588">
        <ele>388.862543</ele>
        <time>2019-03-10T17:47:42.992Z</time>
      </trkpt>
      <trkpt lat="48.789689" lon="11.248405">
        <ele>389.067178</ele>
        <time>2019-03-10T17:47:43.992Z</time>
      </trkpt>
      <trkpt lat="48.789686" lon="11.248231">
        <ele>389.261275</ele>
        <time>2019-03-10T17:47:44.992Z</time>
      </trkpt>
      <trkpt lat="48.789688" lon="11.248048">
        <ele>389.465370</ele>
        <time>2019-03-10T17:47:45.992Z</time>
      </trkpt>
      <trkpt lat="48.789701" lon="11.247859">
        <ele>389.654290</ele>
        <time>2019-03-10T17:47:46.992Z</time>
      </trkpt>
      <trkpt lat="48.789670" lon="11.247678">
        <ele>389.830889</ele>
        <time>2019-03-10T17:47:47.992Z</time>
      </trkpt>
      <trkpt lat="48.789630" lon="11.247467">
        <ele>390.038221</ele>
        <time>2019-03-10T17:47:48.992Z</time>
      </trkpt>
      <trkpt lat="48.789596" lon="11.247271">
        <ele>390.229613</ele>
        <time>2019-03-10T17:47:49.992Z</time>
      </trkpt>
      <trkpt lat="48.789542" lon="11.247094">
        <ele>390.413805</ele>
        <time>2019-03-10T17:47:50.992Z</time>
      </trkpt>
      <trkpt lat="48.789485" lon="11.246921">
        <ele>390.596460</ele>
        <time>2019-03-10T17:47:51.992Z</time>
      </trkpt>
      <trkpt lat="48.789452" lon="11.246742">
        <ele>390.771983</ele>
        <time>2019-03-10T17:47:52.992Z</time>
      </trkpt>
      <trkpt lat="48.789441" lon="11.246577">
        <ele>390.928589</ele>
        <time>2019-03-10T17:47:53.992Z</time>
      </trkpt>
      <trkpt lat="48.789422" lon="11.246425">
        <ele>391.074684</ele>
        <time>2019-03-10T17:47:54.992Z</time>
      </trkpt>
      <trkpt lat="48.789421" lon="11.246274">
        <ele>391.217281</ele>
        <time>2019-03-10T17:47:55.991Z</time>
      </trkpt>
      <trkpt lat="48.789425" lon="11.246102">
        <ele>391.379803</ele>
        <time>2019-03-10T17:47:56.991Z</time>
      </trkpt>
      <trkpt lat="48.789427" lon="11.245854">
        <ele>391.614008</ele>
        <time>2019-03-10T17:47:58.991Z</time>
      </trkpt>
      <trkpt lat="48.789424" lon="11.245638">
        <ele>391.818023</ele>
        <time>2019-03-10T17:48:00.991Z</time>
      </trkpt>
      <trkpt lat="48.789404" lon="11.245469">
        <ele>391.980165</ele>
        <time>2019-03-10T17:48:02.991Z</time>
      </trkpt>
      <trkpt lat="48.789335" lon="11.245356">
        <ele>392.070583</ele>
        <time>2019-03-10T17:48:04.991Z</time>
      </trkpt>
      <trkpt lat="48.789209" lon="11.245268">
        <ele>391.732835</ele>
        <time>2019-03-10T17:48:07.991Z</time>
      </trkpt>
      <trkpt lat="48.789093" lon="11.245197">
        <ele>391.428258</ele>
        <time>2019-03-10T17:48:09.991Z</time>
      </trkpt>
      <trkpt lat="48.788932" lon="11.245136">
        <ele>391.024173</ele>
        <time>2019-03-10T17:48:11.991Z</time>
      </trkpt>
      <trkpt lat="48.788763" lon="11.245054">
        <ele>390.592121</ele>
        <time>2019-03-10T17:48:13.991Z</time>
      </trkpt>
      <trkpt lat="48.788662" lon="11.245024">
        <ele>390.341508</ele>
        <time>2019-03-10T17:48:14.991Z</time>
      </trkpt>
      <trkpt lat="48.788505" lon="11.245007">
        <ele>389.958222</ele>
        <time>2019-03-10T17:48:16.991Z</time>
      </trkpt>
      <trkpt lat="48.788343" lon="11.244987">
        <ele>389.562428</ele>
        <time>2019-03-10T17:48:18.991Z</time>
      </trkpt>
      <trkpt lat="48.788183" lon="11.244973">
        <ele>389.172162</ele>
        <time>2019-03-10T17:48:20.991Z</time>
      </trkpt>
      <trkpt lat="48.788080" lon="11.244994">
        <ele>388.919091</ele>
        <time>2019-03-10T17:48:22.991Z</time>
      </trkpt>
      <trkpt lat="48.788065" lon="11.244829">
        <ele>388.651861</ele>
        <time>2019-03-10T17:48:31.990Z</time>
      </trkpt>
      <trkpt lat="48.788059" lon="11.244672">
        <ele>388.399551</ele>
        <time>2019-03-10T17:48:34.990Z</time>
      </trkpt>
      <trkpt lat="48.788066" lon="11.244503">
        <ele>388.127877</ele>
        <time>2019-03-10T17:48:37.990Z</time>
      </trkpt>
      <trkpt lat="48.788066" lon="11.244340">
        <ele>387.866364</ele>
        <time>2019-03-10T17:48:40.990Z</time>
      </trkpt>
      <trkpt lat="48.788061" lon="11.244188">
        <ele>387.718984</ele>
        <time>2019-03-10T17:48:43.990Z</time>
      </trkpt>
      <trkpt lat="48.788056" lon="11.244025">
        <ele>387.702878</ele>
        <time>2019-03-10T17:48:46.990Z</time>
      </trkpt>
      <trkpt lat="48.788054" lon="11.243844">
        <ele>387.685011</ele>
        <time>2019-03-10T17:48:49.990Z</time>
      </trkpt>
      <trkpt lat="48.788055" lon="11.243661">
        <ele>387.666948</ele>
        <time>2019-03-10T17:48:52.989Z</time>
      </trkpt>
      <trkpt lat="48.788058" lon="11.243499">
        <ele>387.650952</ele>
        <time>2019-03-10T17:48:55.989Z</time>
      </trkpt>
      <trkpt lat="48.788061" lon="11.243332">
        <ele>387.634463</ele>
        <time>2019-03-10T17:48:58.989Z</time>
      </trkpt>
      <trkpt lat="48.788073" lon="11.243155">
        <ele>387.616901</ele>
        <time>2019-03-10T17:49:01.989Z</time>
      </trkpt>
      <trkpt lat="48.788085" lon="11.242992">
        <ele>387.600713</ele>
        <time>2019-03-10T17:49:04.989Z</time>
      </trkpt>
      <trkpt lat="48.788144" lon="11.242832">
        <ele>387.582616</ele>
        <time>2019-03-10T17:49:08.989Z</time>
      </trkpt>
      <trkpt lat="48.788193" lon="11.242709">
        <ele>387.568429</ele>
        <time>2019-03-10T17:49:10.989Z</time>
      </trkpt>
      <trkpt lat="48.788231" lon="11.242582">
        <ele>387.554662</ele>
        <time>2019-03-10T17:49:12.989Z</time>
      </trkpt>
      <trkpt lat="48.788281" lon="11.242403">
        <ele>387.535472</ele>
        <time>2019-03-10T17:49:15.989Z</time>
      </trkpt>
      <trkpt lat="48.788324" lon="11.242249">
        <ele>387.518964</ele>
        <time>2019-03-10T17:49:18.989Z</time>
      </trkpt>
      <trkpt lat="48.788396" lon="11.242134">
        <ele>387.503306</ele>
        <time>2019-03-10T17:49:21.988Z</time>
      </trkpt>
      <trkpt lat="48.788487" lon="11.242067">
        <ele>387.488154</ele>
        <time>2019-03-10T17:49:24.988Z</time>
      </trkpt>
      <trkpt lat="48.788582" lon="11.242067">
        <ele>387.473922</ele>
        <time>2019-03-10T17:49:27.988Z</time>
      </trkpt>
      <trkpt lat="48.788678" lon="11.242060">
        <ele>387.459524</ele>
        <time>2019-03-10T17:49:30.988Z</time>
      </trkpt>
      <trkpt lat="48.788769" lon="11.242019">
        <ele>387.320821</ele>
        <time>2019-03-10T17:49:33.988Z</time>
      </trkpt>
      <trkpt lat="48.788855" lon="11.241941">
        <ele>387.129128</ele>
        <time>2019-03-10T17:49:36.988Z</time>
      </trkpt>
      <trkpt lat="48.788952" lon="11.241885">
        <ele>386.930555</ele>
        <time>2019-03-10T17:49:40.988Z</time>
      </trkpt>
      <trkpt lat="48.789059" lon="11.241879">
        <ele>386.725680</ele>
        <time>2019-03-10T17:49:44.988Z</time>
      </trkpt>
      <trkpt lat="48.789168" lon="11.241892">
        <ele>386.516475</ele>
        <time>2019-03-10T17:49:47.987Z</time>
      </trkpt>
      <trkpt lat="48.789259" lon="11.241893">
        <ele>386.342350</ele>
        <time>2019-03-10T17:49:50.987Z</time>
      </trkpt>
      <trkpt lat="48.789353" lon="11.241832">
        <ele>386.146741</ele>
        <time>2019-03-10T17:49:54.987Z</time>
      </trkpt>
      <trkpt lat="48.789423" lon="11.241731">
        <ele>385.961943</ele>
        <time>2019-03-10T17:49:57.987Z</time>
      </trkpt>
      <trkpt lat="48.789450" lon="11.241571">
        <ele>385.753734</ele>
        <time>2019-03-10T17:50:00.987Z</time>
      </trkpt>
      <trkpt lat="48.789401" lon="11.241373">
        <ele>385.487105</ele>
        <time>2019-03-10T17:50:03.987Z</time>
      </trkpt>
      <trkpt lat="48.789375" lon="11.241220">
        <ele>385.287919</ele>
        <time>2019-03-10T17:50:05.987Z</time>
      </trkpt>
      <trkpt lat="48.789337" lon="11.241022">
        <ele>385.027943</ele>
        <time>2019-03-10T17:50:07.987Z</time>
      </trkpt>
      <trkpt lat="48.789319" lon="11.240843">
        <ele>384.799681</ele>
        <time>2019-03-10T17:50:09.987Z</time>
      </trkpt>
      <trkpt lat="48.789301" lon="11.240707">
        <ele>384.624812</ele>
        <time>2019-03-10T17:50:11.987Z</time>
      </trkpt>
      <trkpt lat="48.789285" lon="11.240572">
        <ele>384.451898</ele>
        <time>2019-03-10T17:50:13.987Z</time>
      </trkpt>
      <trkpt lat="48.789268" lon="11.240355">
        <ele>384.176417</ele>
        <time>2019-03-10T17:50:15.986Z</time>
      </trkpt>
      <trkpt lat="48.789148" lon="11.240177">
        <ele>384.011463</ele>
        <time>2019-03-10T17:50:17.986Z</time>
      </trkpt>
      <trkpt lat="48.789162" lon="11.240005">
        <ele>384.007517</ele>
        <time>2019-03-10T17:50:20.986Z</time>
      </trkpt>
      <trkpt lat="48.789158" lon="11.239829">
        <ele>384.003508</ele>
        <time>2019-03-10T17:50:22.986Z</time>
      </trkpt>
      <trkpt lat="48.789148" lon="11.239636">
        <ele>383.999100</ele>
        <time>2019-03-10T17:50:25.986Z</time>
      </trkpt>
      <trkpt lat="48.789166" lon="11.239491">
        <ele>383.995741</ele>
        <time>2019-03-10T17:50:27.986Z</time>
      </trkpt>
      <trkpt lat="48.789132" lon="11.239358">
        <ele>383.992493</ele>
        <time>2019-03-10T17:50:29.986Z</time>
      </trkpt>
      <trkpt lat="48.789088" lon="11.239175">
        <ele>383.988058</ele>
        <time>2019-03-10T17:50:32.986Z</time>
      </trkpt>
      <trkpt lat="48.789063" lon="11.239021">
        <ele>383.984447</ele>
        <time>2019-03-10T17:50:34.986Z</time>
      </trkpt>
      <trkpt lat="48.789035" lon="11.238869">
        <ele>383.980854</ele>
        <time>2019-03-10T17:50:36.986Z</time>
      </trkpt>
      <trkpt lat="48.788979" lon="11.238713">
        <ele>383.976809</ele>
        <time>2019-03-10T17:50:38.986Z</time>
      </trkpt>
      <trkpt lat="48.788952" lon="11.238472">
        <ele>383.971244</ele>
        <time>2019-03-10T17:50:40.986Z</time>
      </trkpt>
      <trkpt lat="48.788929" lon="11.238178">
        <ele>383.964503</ele>
        <time>2019-03-10T17:50:42.986Z</time>
      </trkpt>
      <trkpt lat="48.788908" lon="11.237971">
        <ele>383.959735</ele>
        <time>2019-03-10T17:50:44.985Z</time>
      </trkpt>
      <trkpt lat="48.788897" lon="11.237833">
        <ele>383.956570</ele>
        <time>2019-03-10T17:50:45.985Z</time>
      </trkpt>
      <trkpt lat="48.788869" lon="11.237609">
        <ele>383.965636</ele>
        <time>2019-03-10T17:50:46.985Z</time>
      </trkpt>
      <trkpt lat="48.788859" lon="11.237395">
        <ele>384.047793</ele>
        <time>2019-03-10T17:50:47.985Z</time>
      </trkpt>
      <trkpt lat="48.788844" lon="11.237232">
        <ele>384.110819</ele>
        <time>2019-03-10T17:50:48.985Z</time>
      </trkpt>
      <trkpt lat="48.788827" lon="11.237068">
        <ele>384.174396</ele>
        <time>2019-03-10T17:50:49.985Z</time>
      </trkpt>
      <trkpt lat="48.788805" lon="11.236920">
        <ele>384.232497</ele>
        <time>2019-03-10T17:50:50.985Z</time>
      </trkpt>
      <trkpt lat="48.788768" lon="11.236753">
        <ele>384.299969</ele>
        <time>2019-03-10T17:50:51.985Z</time>
      </trkpt>
      <trkpt lat="48.788786" lon="11.236569">
        <ele>384.371204</ele>
        <time>2019-03-10T17:50:52.985Z</time>
      </trkpt>
      <trkpt lat="48.788744" lon="11.236354">
        <ele>384.457081</ele>
        <time>2019-03-10T17:50:53.985Z</time>
      </trkpt>
      <trkpt lat="48.788740" lon="11.236213">
        <ele>384.511127</ele>
        <time>2019-03-10T17:50:54.985Z</time>
      </trkpt>
      <trkpt lat="48.788739" lon="11.236053">
        <ele>384.572402</ele>
        <time>2019-03-10T17:50:55.985Z</time>
      </trkpt>
      <trkpt lat="48.788753" lon="11.235899">
        <ele>384.631935</ele>
        <time>2019-03-10T17:50:56.985Z</time>
      </trkpt>
      <trkpt lat="48.788752" lon="11.235736">
        <ele>384.694358</ele>
        <time>2019-03-10T17:50:57.985Z</time>
      </trkpt>
      <trkpt lat="48.788777" lon="11.235569">
        <ele>384.759941</ele>
        <time>2019-03-10T17:50:58.985Z</time>
      </trkpt>
      <trkpt lat="48.788812" lon="11.235417">
        <ele>384.821602</ele>
        <time>2019-03-10T17:50:59.985Z</time>
      </trkpt>
      <trkpt lat="48.788843" lon="11.235173">
        <ele>384.916763</ele>
        <time>2019-03-10T17:51:01.985Z</time>
      </trkpt>
      <trkpt lat="48.788821" lon="11.235036">
        <ele>384.970763</ele>
        <time>2019-03-10T17:51:02.985Z</time>
      </trkpt>
      <trkpt lat="48.788813" lon="11.234801">
        <ele>385.027638</ele>
        <time>2019-03-10T17:51:04.985Z</time>
      </trkpt>
      <trkpt lat="48.788791" lon="11.234554">
        <ele>385.072916</ele>
        <time>2019-03-10T17:51:06.985Z</time>
      </trkpt>
      <trkpt lat="48.788805" lon="11.234304">
        <ele>385.118495</ele>
        <time>2019-03-10T17:51:08.989Z</time>
      </trkpt>
      <trkpt lat="48.788816" lon="11.234160">
        <ele>385.144829</ele>
        <time>2019-03-10T17:51:09.989Z</time>
      </trkpt>
      <trkpt lat="48.788851" lon="11.233875">
        <ele>385.197493</ele>
        <time>2019-03-10T17:51:11.990Z</time>
      </trkpt>
      <trkpt lat="48.788853" lon="11.233732">
        <ele>385.223476</ele>
        <time>2019-03-10T17:51:12.991Z</time>
      </trkpt>
      <trkpt lat="48.788905" lon="11.233487">
        <ele>385.270235</ele>
        <time>2019-03-10T17:51:14.992Z</time>
      </trkpt>
      <trkpt lat="48.788935" lon="11.233243">
        <ele>385.315325</ele>
        <time>2019-03-10T17:51:16.993Z</time>
      </trkpt>
      <trkpt lat="48.788939" lon="11.233101">
        <ele>385.341144</ele>
        <time>2019-03-10T17:51:17.993Z</time>
      </trkpt>
      <trkpt lat="48.788945" lon="11.232828">
        <ele>385.390764</ele>
        <time>2019-03-10T17:51:19.994Z</time>
      </trkpt>
      <trkpt lat="48.788993" lon="11.232710">
        <ele>385.415957</ele>
        <time>2019-03-10T17:51:20.994Z</time>
      </trkpt>
      <trkpt lat="48.789039" lon="11.232468">
        <ele>385.461711</ele>
        <time>2019-03-10T17:51:22.995Z</time>
      </trkpt>
      <trkpt lat="48.789079" lon="11.232345">
        <ele>385.486629</ele>
        <time>2019-03-10T17:51:23.995Z</time>
      </trkpt>
      <trkpt lat="48.789140" lon="11.232114">
        <ele>385.534312</ele>
        <time>2019-03-10T17:51:25.996Z</time>
      </trkpt>
      <trkpt lat="48.789182" lon="11.231905">
        <ele>385.576572</ele>
        <time>2019-03-10T17:51:27.996Z</time>
      </trkpt>
      <trkpt lat="48.789219" lon="11.231710">
        <ele>385.615820</ele>
        <time>2019-03-10T17:51:29.996Z</time>
      </trkpt>
      <trkpt lat="48.789237" lon="11.231542">
        <ele>385.648739</ele>
        <time>2019-03-10T17:51:31.996Z</time>
      </trkpt>
      <trkpt lat="48.789326" lon="11.231366">
        <ele>385.691649</ele>
        <time>2019-03-10T17:51:34.997Z</time>
      </trkpt>
      <trkpt lat="48.789534" lon="11.231359">
        <ele>385.752725</ele>
        <time>2019-03-10T17:51:37.997Z</time>
      </trkpt>
      <trkpt lat="48.789675" lon="11.231448">
        <ele>385.797554</ele>
        <time>2019-03-10T17:51:39.997Z</time>
      </trkpt>
      <trkpt lat="48.789859" lon="11.231480">
        <ele>385.851922</ele>
        <time>2019-03-10T17:51:41.997Z</time>
      </trkpt>
      <trkpt lat="48.789999" lon="11.231508">
        <ele>385.893376</ele>
        <time>2019-03-10T17:51:43.997Z</time>
      </trkpt>
      <trkpt lat="48.790119" lon="11.231506">
        <ele>385.928605</ele>
        <time>2019-03-10T17:51:45.997Z</time>
      </trkpt>
      <trkpt lat="48.790220" lon="11.231516">
        <ele>385.958318</ele>
        <time>2019-03-10T17:51:47.998Z</time>
      </trkpt>
      <trkpt lat="48.790324" lon="11.231570">
        <ele>385.990585</ele>
        <time>2019-03-10T17:51:51.998Z</time>
      </trkpt>
      <trkpt lat="48.790418" lon="11.231464">
        <ele>386.020853</ele>
        <time>2019-03-10T17:51:55.998Z</time>
      </trkpt>
      <trkpt lat="48.790444" lon="11.231238">
        <ele>386.011191</ele>
        <time>2019-03-10T17:51:58.998Z</time>
      </trkpt>
      <trkpt lat="48.790475" lon="11.231014">
        <ele>386.001551</ele>
        <time>2019-03-10T17:52:00.998Z</time>
      </trkpt>
      <trkpt lat="48.790480" lon="11.230874">
        <ele>385.995646</ele>
        <time>2019-03-10T17:52:01.998Z</time>
      </trkpt>
      <trkpt lat="48.790513" lon="11.230617">
        <ele>385.984619</ele>
        <time>2019-03-10T17:52:03.998Z</time>
      </trkpt>
      <trkpt lat="48.790546" lon="11.230485">
        <ele>385.978672</ele>
        <time>2019-03-10T17:52:04.998Z</time>
      </trkpt>
      <trkpt lat="48.790599" lon="11.230355">
        <ele>385.972234</ele>
        <time>2019-03-10T17:52:05.998Z</time>
      </trkpt>
      <trkpt lat="48.790656" lon="11.230210">
        <ele>385.965123</ele>
        <time>2019-03-10T17:52:06.997Z</time>
      </trkpt>
      <trkpt lat="48.790715" lon="11.230059">
        <ele>385.957729</ele>
        <time>2019-03-10T17:52:07.997Z</time>
      </trkpt>
      <trkpt lat="48.790787" lon="11.229899">
        <ele>385.949568</ele>
        <time>2019-03-10T17:52:08.997Z</time>
      </trkpt>
      <trkpt lat="48.790842" lon="11.229732">
        <ele>385.941705</ele>
        <time>2019-03-10T17:52:09.997Z</time>
      </trkpt>
      <trkpt lat="48.790910" lon="11.229568">
        <ele>385.933544</ele>
        <time>2019-03-10T17:52:10.997Z</time>
      </trkpt>
      <trkpt lat="48.790999" lon="11.229400">
        <ele>385.924465</ele>
        <time>2019-03-10T17:52:11.997Z</time>
      </trkpt>
      <trkpt lat="48.791079" lon="11.229227">
        <ele>385.915563</ele>
        <time>2019-03-10T17:52:12.997Z</time>
      </trkpt>
      <trkpt lat="48.791143" lon="11.229049">
        <ele>385.907023</ele>
        <time>2019-03-10T17:52:13.997Z</time>
      </trkpt>
      <trkpt lat="48.791226" lon="11.228879">
        <ele>385.845564</ele>
        <time>2019-03-10T17:52:14.997Z</time>
      </trkpt>
      <trkpt lat="48.791324" lon="11.228738">
        <ele>385.783534</ele>
        <time>2019-03-10T17:52:15.997Z</time>
      </trkpt>
      <trkpt lat="48.791415" lon="11.228590">
        <ele>385.722267</ele>
        <time>2019-03-10T17:52:16.997Z</time>
      </trkpt>
      <trkpt lat="48.791520" lon="11.228442">
        <ele>385.656443</ele>
        <time>2019-03-10T17:52:17.997Z</time>
      </trkpt>
      <trkpt lat="48.791626" lon="11.228245">
        <ele>385.579465</ele>
        <time>2019-03-10T17:52:19.997Z</time>
      </trkpt>
      <trkpt lat="48.791627" lon="11.228085">
        <ele>385.531041</ele>
        <time>2019-03-10T17:52:22.997Z</time>
      </trkpt>
      <trkpt lat="48.791785" lon="11.228252">
        <ele>385.442596</ele>
        <time>2019-03-10T17:52:38.997Z</time>
      </trkpt>
      <trkpt lat="48.791974" lon="11.228412">
        <ele>385.343184</ele>
        <time>2019-03-10T17:52:40.997Z</time>
      </trkpt>
      <trkpt lat="48.792114" lon="11.228504">
        <ele>385.273103</ele>
        <time>2019-03-10T17:52:41.996Z</time>
      </trkpt>
      <trkpt lat="48.792280" lon="11.228604">
        <ele>385.191061</ele>
        <time>2019-03-10T17:52:42.996Z</time>
      </trkpt>
      <trkpt lat="48.792448" lon="11.228727">
        <ele>385.105378</ele>
        <time>2019-03-10T17:52:43.996Z</time>
      </trkpt>
      <trkpt lat="48.792626" lon="11.228824">
        <ele>385.202855</ele>
        <time>2019-03-10T17:52:44.996Z</time>
      </trkpt>
      <trkpt lat="48.792787" lon="11.228942">
        <ele>385.365522</ele>
        <time>2019-03-10T17:52:45.996Z</time>
      </trkpt>
      <trkpt lat="48.792945" lon="11.229053">
        <ele>385.523928</ele>
        <time>2019-03-10T17:52:46.996Z</time>
      </trkpt>
      <trkpt lat="48.793107" lon="11.229159">
        <ele>385.684435</ele>
        <time>2019-03-10T17:52:47.996Z</time>
      </trkpt>
      <trkpt lat="48.793268" lon="11.229248">
        <ele>385.840331</ele>
        <time>2019-03-10T17:52:48.996Z</time>
      </trkpt>
      <trkpt lat="48.793433" lon="11.229324">
        <ele>385.997216</ele>
        <time>2019-03-10T17:52:49.996Z</time>
      </trkpt>
      <trkpt lat="48.793594" lon="11.229408">
        <ele>386.152113</ele>
        <time>2019-03-10T17:52:50.996Z</time>
      </trkpt>
      <trkpt lat="48.793780" lon="11.229508">
        <ele>386.331646</ele>
        <time>2019-03-10T17:52:51.996Z</time>
      </trkpt>
      <trkpt lat="48.793977" lon="11.229616">
        <ele>386.522217</ele>
        <time>2019-03-10T17:52:52.996Z</time>
      </trkpt>
      <trkpt lat="48.794141" lon="11.229680">
        <ele>386.676284</ele>
        <time>2019-03-10T17:52:53.996Z</time>
      </trkpt>
      <trkpt lat="48.794314" lon="11.229725">
        <ele>386.763288</ele>
        <time>2019-03-10T17:52:54.996Z</time>
      </trkpt>
      <trkpt lat="48.794464" lon="11.229743">
        <ele>386.816655</ele>
        <time>2019-03-10T17:52:55.996Z</time>
      </trkpt>
      <trkpt lat="48.794651" lon="11.229763">
        <ele>386.883145</ele>
        <time>2019-03-10T17:52:56.996Z</time>
      </trkpt>
      <trkpt lat="48.794814" lon="11.229778">
        <ele>386.941064</ele>
        <time>2019-03-10T17:52:57.996Z</time>
      </trkpt>
      <trkpt lat="48.794967" lon="11.229789">
        <ele>386.995390</ele>
        <time>2019-03-10T17:52:58.996Z</time>
      </trkpt>
      <trkpt lat="48.795106" lon="11.229786">
        <ele>387.044696</ele>
        <time>2019-03-10T17:52:59.996Z</time>
      </trkpt>
      <trkpt lat="48.795238" lon="11.229787">
        <ele>387.091514</ele>
        <time>2019-03-10T17:53:00.996Z</time>
      </trkpt>
      <trkpt lat="48.795368" lon="11.229780">
        <ele>387.137651</ele>
        <time>2019-03-10T17:53:01.996Z</time>
      </trkpt>
      <trkpt lat="48.795480" lon="11.229776">
        <ele>387.177386</ele>
        <time>2019-03-10T17:53:02.996Z</time>
      </trkpt>
      <trkpt lat="48.795598" lon="11.229773">
        <ele>387.219244</ele>
        <time>2019-03-10T17:53:03.996Z</time>
      </trkpt>
      <trkpt lat="48.795708" lon="11.229771">
        <ele>387.258261</ele>
        <time>2019-03-10T17:53:04.996Z</time>
      </trkpt>
      <trkpt lat="48.795880" lon="11.229747">
        <ele>387.319523</ele>
        <time>2019-03-10T17:53:06.996Z</time>
      </trkpt>
      <trkpt lat="48.796035" lon="11.229726">
        <ele>387.366045</ele>
        <time>2019-03-10T17:53:08.996Z</time>
      </trkpt>
      <trkpt lat="48.796172" lon="11.229673">
        <ele>387.394370</ele>
        <time>2019-03-10T17:53:10.995Z</time>
      </trkpt>
      <trkpt lat="48.796292" lon="11.229607">
        <ele>387.419942</ele>
        <time>2019-03-10T17:53:12.995Z</time>
      </trkpt>
      <trkpt lat="48.796368" lon="11.229475">
        <ele>387.443080</ele>
        <time>2019-03-10T17:53:14.995Z</time>
      </trkpt>
      <trkpt lat="48.796482" lon="11.229418">
        <ele>387.467127</ele>
        <time>2019-03-10T17:53:17.995Z</time>
      </trkpt>
      <trkpt lat="48.796547" lon="11.229265">
        <ele>387.491155</ele>
        <time>2019-03-10T17:53:21.995Z</time>
      </trkpt>
      <trkpt lat="48.796533" lon="11.229046">
        <ele>387.520195</ele>
        <time>2019-03-10T17:53:24.995Z</time>
      </trkpt>
      <trkpt lat="48.796510" lon="11.228850">
        <ele>387.546470</ele>
        <time>2019-03-10T17:53:27.995Z</time>
      </trkpt>
      <trkpt lat="48.796498" lon="11.228709">
        <ele>387.565234</ele>
        <time>2019-03-10T17:53:29.995Z</time>
      </trkpt>
      <trkpt lat="48.796450" lon="11.228560">
        <ele>387.587124</ele>
        <time>2019-03-10T17:53:31.995Z</time>
      </trkpt>
      <trkpt lat="48.796420" lon="11.228395">
        <ele>387.609715</ele>
        <time>2019-03-10T17:53:34.995Z</time>
      </trkpt>
      <trkpt lat="48.796362" lon="11.228210">
        <ele>387.636756</ele>
        <time>2019-03-10T17:53:37.994Z</time>
      </trkpt>
      <trkpt lat="48.796365" lon="11.228063">
        <ele>387.656166</ele>
        <time>2019-03-10T17:53:40.994Z</time>
      </trkpt>
      <trkpt lat="48.796390" lon="11.227924">
        <ele>387.675183</ele>
        <time>2019-03-10T17:53:44.994Z</time>
      </trkpt>
      <trkpt lat="48.796376" lon="11.227760">
        <ele>387.697009</ele>
        <time>2019-03-10T17:53:47.994Z</time>
      </trkpt>
      <trkpt lat="48.796367" lon="11.227585">
        <ele>387.710564</ele>
        <time>2019-03-10T17:53:49.994Z</time>
      </trkpt>
      <trkpt lat="48.796372" lon="11.227427">
        <ele>387.691516</ele>
        <time>2019-03-10T17:53:51.994Z</time>
      </trkpt>
      <trkpt lat="48.796378" lon="11.227286">
        <ele>387.674502</ele>
        <time>2019-03-10T17:53:53.994Z</time>
      </trkpt>
      <trkpt lat="48.796401" lon="11.227139">
        <ele>387.656308</ele>
        <time>2019-03-10T17:53:55.994Z</time>
      </trkpt>
      <trkpt lat="48.796406" lon="11.226994">
        <ele>387.638823</ele>
        <time>2019-03-10T17:53:57.994Z</time>
      </trkpt>
      <trkpt lat="48.796398" lon="11.226811">
        <ele>387.616738</ele>
        <time>2019-03-10T17:54:00.994Z</time>
      </trkpt>
      <trkpt lat="48.796408" lon="11.226636">
        <ele>387.595585</ele>
        <time>2019-03-10T17:54:03.994Z</time>
      </trkpt>
      <trkpt lat="48.796423" lon="11.226496">
        <ele>387.578505</ele>
        <time>2019-03-10T17:54:05.993Z</time>
      </trkpt>
      <trkpt lat="48.796430" lon="11.226325">
        <ele>387.557874</ele>
        <time>2019-03-10T17:54:07.993Z</time>
      </trkpt>
      <trkpt lat="48.796428" lon="11.226135">
        <ele>387.534991</ele>
        <time>2019-03-10T17:54:09.993Z</time>
      </trkpt>
      <trkpt lat="48.796460" lon="11.225958">
        <ele>387.512889</ele>
        <time>2019-03-10T17:54:11.993Z</time>
      </trkpt>
      <trkpt lat="48.796489" lon="11.225798">
        <ele>387.492906</ele>
        <time>2019-03-10T17:54:13.993Z</time>
      </trkpt>
      <trkpt lat="48.796513" lon="11.225636">
        <ele>387.472910</ele>
        <time>2019-03-10T17:54:15.993Z</time>
      </trkpt>
      <trkpt lat="48.796531" lon="11.225481">
        <ele>387.453958</ele>
        <time>2019-03-10T17:54:17.993Z</time>
      </trkpt>
      <trkpt lat="48.796556" lon="11.225309">
        <ele>387.432747</ele>
        <time>2019-03-10T17:54:19.993Z</time>
      </trkpt>
      <trkpt lat="48.796562" lon="11.225139">
        <ele>387.412247</ele>
        <time>2019-03-10T17:54:21.993Z</time>
      </trkpt>
      <trkpt lat="48.796574" lon="11.224972">
        <ele>387.392018</ele>
        <time>2019-03-10T17:54:23.993Z</time>
      </trkpt>
      <trkpt lat="48.796579" lon="11.224836">
        <ele>387.339555</ele>
        <time>2019-03-10T17:54:25.993Z</time>
      </trkpt>
      <trkpt lat="48.796599" lon="11.224686">
        <ele>387.259231</ele>
        <time>2019-03-10T17:54:27.993Z</time>
      </trkpt>
      <trkpt lat="48.796561" lon="11.224534">
        <ele>387.173902</ele>
        <time>2019-03-10T17:54:29.993Z</time>
      </trkpt>
      <trkpt lat="48.796536" lon="11.224374">
        <ele>387.087596</ele>
        <time>2019-03-10T17:54:32.991Z</time>
      </trkpt>
      <trkpt lat="48.796565" lon="11.224241">
        <ele>387.014066</ele>
        <time>2019-03-10T17:54:39.991Z</time>
      </trkpt>
      <trkpt lat="48.796659" lon="11.224280">
        <ele>386.936424</ele>
        <time>2019-03-10T17:54:47.991Z</time>
      </trkpt>
      <trkpt lat="48.796741" lon="11.224342">
        <ele>386.863435</ele>
        <time>2019-03-10T17:54:52.991Z</time>
      </trkpt>
      <trkpt lat="48.796802" lon="11.224458">
        <ele>386.785532</ele>
        <time>2019-03-10T17:54:54.991Z</time>
      </trkpt>
      <trkpt lat="48.796896" lon="11.224527">
        <ele>386.702341</ele>
        <time>2019-03-10T17:54:56.992Z</time>
      </trkpt>
      <trkpt lat="48.797018" lon="11.224578">
        <ele>386.601519</ele>
        <time>2019-03-10T17:54:58.992Z</time>
      </trkpt>
      <trkpt lat="48.797098" lon="11.224675">
        <ele>386.519943</ele>
        <time>2019-03-10T17:55:00.991Z</time>
      </trkpt>
      <trkpt lat="48.797199" lon="11.224748">
        <ele>386.430815</ele>
        <time>2019-03-10T17:55:02.991Z</time>
      </trkpt>
      <trkpt lat="48.797270" lon="11.224850">
        <ele>386.352931</ele>
        <time>2019-03-10T17:55:05.991Z</time>
      </trkpt>
      <trkpt lat="48.797355" lon="11.224806">
        <ele>386.281377</ele>
        <time>2019-03-10T17:55:10.991Z</time>
      </trkpt>
      <trkpt lat="48.797399" lon="11.224686">
        <ele>386.209297</ele>
        <time>2019-03-10T17:55:13.991Z</time>
      </trkpt>
      <trkpt lat="48.797430" lon="11.224467">
        <ele>386.091732</ele>
        <time>2019-03-10T17:55:16.991Z</time>
      </trkpt>
      <trkpt lat="48.797461" lon="11.224326">
        <ele>386.013717</ele>
        <time>2019-03-10T17:55:18.991Z</time>
      </trkpt>
      <trkpt lat="48.797468" lon="11.224155">
        <ele>385.956440</ele>
        <time>2019-03-10T17:55:20.991Z</time>
      </trkpt>
      <trkpt lat="48.797495" lon="11.223944">
        <ele>385.968562</ele>
        <time>2019-03-10T17:55:22.991Z</time>
      </trkpt>
      <trkpt lat="48.797521" lon="11.223708">
        <ele>385.982057</ele>
        <time>2019-03-10T17:55:24.991Z</time>
      </trkpt>
      <trkpt lat="48.797555" lon="11.223445">
        <ele>385.997172</ele>
        <time>2019-03-10T17:55:26.991Z</time>
      </trkpt>
      <trkpt lat="48.797561" lon="11.223179">
        <ele>386.012182</ele>
        <time>2019-03-10T17:55:28.990Z</time>
      </trkpt>
      <trkpt lat="48.797583" lon="11.222928">
        <ele>386.026462</ele>
        <time>2019-03-10T17:55:30.990Z</time>
      </trkpt>
      <trkpt lat="48.797613" lon="11.222701">
        <ele>386.039519</ele>
        <time>2019-03-10T17:55:32.990Z</time>
      </trkpt>
      <trkpt lat="48.797651" lon="11.222449">
        <ele>386.054099</ele>
        <time>2019-03-10T17:55:34.990Z</time>
      </trkpt>
      <trkpt lat="48.797660" lon="11.222308">
        <ele>386.062088</ele>
        <time>2019-03-10T17:55:35.990Z</time>
      </trkpt>
      <trkpt lat="48.797632" lon="11.222162">
        <ele>386.070664</ele>
        <time>2019-03-10T17:55:36.990Z</time>
      </trkpt>
      <trkpt lat="48.797682" lon="11.221899">
        <ele>386.086101</ele>
        <time>2019-03-10T17:55:38.990Z</time>
      </trkpt>
      <trkpt lat="48.797703" lon="11.221662">
        <ele>386.099588</ele>
        <time>2019-03-10T17:55:40.990Z</time>
      </trkpt>
      <trkpt lat="48.797739" lon="11.221437">
        <ele>386.145189</ele>
        <time>2019-03-10T17:55:42.990Z</time>
      </trkpt>
      <trkpt lat="48.797772" lon="11.221260">
        <ele>386.218288</ele>
        <time>2019-03-10T17:55:44.990Z</time>
      </trkpt>
      <trkpt lat="48.797810" lon="11.221079">
        <ele>386.293778</ele>
        <time>2019-03-10T17:55:46.990Z</time>
      </trkpt>
      <trkpt lat="48.797829" lon="11.220902">
        <ele>386.365042</ele>
        <time>2019-03-10T17:55:48.990Z</time>
      </trkpt>
      <trkpt lat="48.797824" lon="11.220764">
        <ele>386.419963</ele>
        <time>2019-03-10T17:55:50.990Z</time>
      </trkpt>
      <trkpt lat="48.797918" lon="11.220686">
        <ele>386.484588</ele>
        <time>2019-03-10T17:55:53.990Z</time>
      </trkpt>
      <trkpt lat="48.798012" lon="11.220622">
        <ele>386.546736</ele>
        <time>2019-03-10T17:55:55.989Z</time>
      </trkpt>
      <trkpt lat="48.798117" lon="11.220611">
        <ele>386.610229</ele>
        <time>2019-03-10T17:55:56.989Z</time>
      </trkpt>
      <trkpt lat="48.798248" lon="11.220600">
        <ele>386.689377</ele>
        <time>2019-03-10T17:55:58.989Z</time>
      </trkpt>
      <trkpt lat="48.798399" lon="11.220599">
        <ele>386.780470</ele>
        <time>2019-03-10T17:56:00.989Z</time>
      </trkpt>
      <trkpt lat="48.798510" lon="11.220597">
        <ele>386.847437</ele>
        <time>2019-03-10T17:56:02.989Z</time>
      </trkpt>
      <trkpt lat="48.798632" lon="11.220620">
        <ele>386.921600</ele>
        <time>2019-03-10T17:56:04.989Z</time>
      </trkpt>
      <trkpt lat="48.798761" lon="11.220625">
        <ele>386.999446</ele>
        <time>2019-03-10T17:56:06.989Z</time>
      </trkpt>
      <trkpt lat="48.798886" lon="11.220624">
        <ele>387.074854</ele>
        <time>2019-03-10T17:56:08.989Z</time>
      </trkpt>
      <trkpt lat="48.799015" lon="11.220631">
        <ele>387.152725</ele>
        <time>2019-03-10T17:56:10.989Z</time>
      </trkpt>
      <trkpt lat="48.799103" lon="11.220583">
        <ele>387.230119</ele>
        <time>2019-03-10T17:56:12.989Z</time>
      </trkpt>
      <trkpt lat="48.799188" lon="11.220651">
        <ele>387.360390</ele>
        <time>2019-03-10T17:56:15.989Z</time>
      </trkpt>
      <trkpt lat="48.799168" lon="11.220487">
        <ele>387.509348</ele>
        <time>2019-03-10T17:56:20.989Z</time>
      </trkpt>
      <trkpt lat="48.799175" lon="11.220312">
        <ele>387.665930</ele>
        <time>2019-03-10T17:56:22.988Z</time>
      </trkpt>
      <trkpt lat="48.799187" lon="11.220111">
        <ele>387.846181</ele>
        <time>2019-03-10T17:56:24.988Z</time>
      </trkpt>
      <trkpt lat="48.799193" lon="11.219910">
        <ele>388.025880</ele>
        <time>2019-03-10T17:56:26.988Z</time>
      </trkpt>
      <trkpt lat="48.799190" lon="11.219689">
        <ele>388.223299</ele>
        <time>2019-03-10T17:56:28.988Z</time>
      </trkpt>
      <trkpt lat="48.799183" lon="11.219466">
        <ele>388.422688</ele>
        <time>2019-03-10T17:56:30.988Z</time>
      </trkpt>
      <trkpt lat="48.799162" lon="11.219237">
        <ele>388.629183</ele>
        <time>2019-03-10T17:56:32.988Z</time>
      </trkpt>
      <trkpt lat="48.799138" lon="11.219037">
        <ele>388.810744</ele>
        <time>2019-03-10T17:56:34.988Z</time>
      </trkpt>
      <trkpt lat="48.799182" lon="11.218903">
        <ele>388.944466</ele>
        <time>2019-03-10T17:56:38.988Z</time>
      </trkpt>
      <trkpt lat="48.799314" lon="11.218943">
        <ele>389.126971</ele>
        <time>2019-03-10T17:56:42.988Z</time>
      </trkpt>
      <trkpt lat="48.799443" lon="11.218950">
        <ele>389.301990</ele>
        <time>2019-03-10T17:56:45.988Z</time>
      </trkpt>
      <trkpt lat="48.799564" lon="11.219003">
        <ele>389.472741</ele>
        <time>2019-03-10T17:56:47.988Z</time>
      </trkpt>
      <trkpt lat="48.799677" lon="11.219044">
        <ele>389.630269</ele>
        <time>2019-03-10T17:56:49.987Z</time>
      </trkpt>
      <trkpt lat="48.799768" lon="11.219089">
        <ele>389.889828</ele>
        <time>2019-03-10T17:56:51.987Z</time>
      </trkpt>
      <trkpt lat="48.799909" lon="11.219089">
        <ele>390.273357</ele>
        <time>2019-03-10T17:56:54.987Z</time>
      </trkpt>
      <trkpt lat="48.800088" lon="11.219094">
        <ele>390.760331</ele>
        <time>2019-03-10T17:56:58.987Z</time>
      </trkpt>
      <trkpt lat="48.800167" lon="11.219019">
        <ele>391.013772</ele>
        <time>2019-03-10T17:57:01.987Z</time>
      </trkpt>
      <trkpt lat="48.800285" lon="11.218991">
        <ele>391.338637</ele>
        <time>2019-03-10T17:57:06.987Z</time>
      </trkpt>
      <trkpt lat="48.800344" lon="11.218882">
        <ele>391.591409</ele>
        <time>2019-03-10T17:57:10.987Z</time>
      </trkpt>
      <trkpt lat="48.800452" lon="11.218848">
        <ele>391.891426</ele>
        <time>2019-03-10T17:57:13.987Z</time>
      </trkpt>
      <trkpt lat="48.800587" lon="11.218823">
        <ele>392.261356</ele>
        <time>2019-03-10T17:57:15.987Z</time>
      </trkpt>
      <trkpt lat="48.800676" lon="11.218840">
        <ele>392.505351</ele>
        <time>2019-03-10T17:57:24.986Z</time>
      </trkpt>
      <trkpt lat="48.800705" lon="11.218998">
        <ele>392.799217</ele>
        <time>2019-03-10T17:57:30.986Z</time>
      </trkpt>
      <trkpt lat="48.800678" lon="11.219133">
        <ele>393.051994</ele>
        <time>2019-03-10T17:57:32.986Z</time>
      </trkpt>
      <trkpt lat="48.800633" lon="11.219255">
        <ele>393.302515</ele>
        <time>2019-03-10T17:57:34.986Z</time>
      </trkpt>
      <trkpt lat="48.800578" lon="11.219420">
        <ele>393.633837</ele>
        <time>2019-03-10T17:57:36.986Z</time>
      </trkpt>
      <trkpt lat="48.800556" lon="11.219572">
        <ele>393.912666</ele>
        <time>2019-03-10T17:57:38.986Z</time>
      </trkpt>
      <trkpt lat="48.800519" lon="11.219718">
        <ele>394.192942</ele>
        <time>2019-03-10T17:57:41.986Z</time>
      </trkpt>
      <trkpt lat="48.800492" lon="11.219859">
        <ele>394.456025</ele>
        <time>2019-03-10T17:57:44.986Z</time>
      </trkpt>
      <trkpt lat="48.800547" lon="11.219984">
        <ele>394.688970</ele>
        <time>2019-03-10T17:57:47.985Z</time>
      </trkpt>
      <trkpt lat="48.800580" lon="11.220153">
        <ele>394.947872</ele>
        <time>2019-03-10T17:57:52.985Z</time>
      </trkpt>
      <trkpt lat="48.800608" lon="11.220331">
        <ele>395.216666</ele>
        <time>2019-03-10T17:57:55.985Z</time>
      </trkpt>
      <trkpt lat="48.800557" lon="11.220489">
        <ele>395.475101</ele>
        <time>2019-03-10T17:57:57.985Z</time>
      </trkpt>
      <trkpt lat="48.800525" lon="11.220660">
        <ele>395.736202</ele>
        <time>2019-03-10T17:57:59.985Z</time>
      </trkpt>
      <trkpt lat="48.800454" lon="11.220845">
        <ele>396.050686</ele>
        <time>2019-03-10T17:58:01.985Z</time>
      </trkpt>
      <trkpt lat="48.800326" lon="11.221034">
        <ele>396.448843</ele>
        <time>2019-03-10T17:58:03.985Z</time>
      </trkpt>
      <trkpt lat="48.800500" lon="11.221198">
        <ele>396.905534</ele>
        <time>2019-03-10T17:58:04.985Z</time>
      </trkpt>
      <trkpt lat="48.800423" lon="11.221364">
        <ele>397.203742</ele>
        <time>2019-03-10T17:58:06.985Z</time>
      </trkpt>
      <trkpt lat="48.800334" lon="11.221462">
        <ele>397.448906</ele>
        <time>2019-03-10T17:58:07.985Z</time>
      </trkpt>
      <trkpt lat="48.800242" lon="11.221553">
        <ele>397.693754</ele>
        <time>2019-03-10T17:58:08.985Z</time>
      </trkpt>
      <trkpt lat="48.800271" lon="11.221754">
        <ele>397.995980</ele>
        <time>2019-03-10T17:58:10.985Z</time>
      </trkpt>
      <trkpt lat="48.800223" lon="11.221936">
        <ele>398.283932</ele>
        <time>2019-03-10T17:58:12.984Z</time>
      </trkpt>
      <trkpt lat="48.800190" lon="11.222094">
        <ele>398.527388</ele>
        <time>2019-03-10T17:58:14.984Z</time>
      </trkpt>
      <trkpt lat="48.800198" lon="11.222265">
        <ele>398.692252</ele>
        <time>2019-03-10T17:58:17.984Z</time>
      </trkpt>
      <trkpt lat="48.800153" lon="11.222448">
        <ele>398.877346</ele>
        <time>2019-03-10T17:58:19.988Z</time>
      </trkpt>
      <trkpt lat="48.800144" lon="11.222623">
        <ele>399.043674</ele>
        <time>2019-03-10T17:58:21.989Z</time>
      </trkpt>
      <trkpt lat="48.800119" lon="11.222811">
        <ele>399.225411</ele>
        <time>2019-03-10T17:58:23.991Z</time>
      </trkpt>
      <trkpt lat="48.800093" lon="11.223058">
        <ele>399.462429</ele>
        <time>2019-03-10T17:58:25.992Z</time>
      </trkpt>
      <trkpt lat="48.800121" lon="11.223276">
        <ele>399.672889</ele>
        <time>2019-03-10T17:58:27.993Z</time>
      </trkpt>
      <trkpt lat="48.800070" lon="11.223405">
        <ele>399.815452</ele>
        <time>2019-03-10T17:58:28.993Z</time>
      </trkpt>
      <trkpt lat="48.800101" lon="11.223671">
        <ele>400.071420</ele>
        <time>2019-03-10T17:58:30.994Z</time>
      </trkpt>
      <trkpt lat="48.800136" lon="11.223803">
        <ele>400.206252</ele>
        <time>2019-03-10T17:58:31.994Z</time>
      </trkpt>
      <trkpt lat="48.800100" lon="11.224054">
        <ele>400.449664</ele>
        <time>2019-03-10T17:58:33.995Z</time>
      </trkpt>
      <trkpt lat="48.800088" lon="11.224215">
        <ele>400.603196</ele>
        <time>2019-03-10T17:58:35.995Z</time>
      </trkpt>
      <trkpt lat="48.800064" lon="11.224434">
        <ele>400.813565</ele>
        <time>2019-03-10T17:58:37.996Z</time>
      </trkpt>
      <trkpt lat="48.799995" lon="11.224585">
        <ele>400.987707</ele>
        <time>2019-03-10T17:58:39.996Z</time>
      </trkpt>
      <trkpt lat="48.799882" lon="11.224716">
        <ele>401.276073</ele>
        <time>2019-03-10T17:58:42.996Z</time>
      </trkpt>
      <trkpt lat="48.799837" lon="11.224851">
        <ele>401.589780</ele>
        <time>2019-03-10T17:58:48.997Z</time>
      </trkpt>
      <trkpt lat="48.799919" lon="11.224918">
        <ele>401.882903</ele>
        <time>2019-03-10T17:58:53.997Z</time>
      </trkpt>
      <trkpt lat="48.800011" lon="11.224955">
        <ele>402.182484</ele>
        <time>2019-03-10T17:59:03.998Z</time>
      </trkpt>
      <trkpt lat="48.800104" lon="11.224978">
        <ele>402.479082</ele>
        <time>2019-03-10T17:59:06.998Z</time>
      </trkpt>
      <trkpt lat="48.800200" lon="11.224998">
        <ele>402.784096</ele>
        <time>2019-03-10T17:59:10.998Z</time>
      </trkpt>
      <trkpt lat="48.800298" lon="11.225051">
        <ele>403.111563</ele>
        <time>2019-03-10T17:59:16.998Z</time>
      </trkpt>
      <trkpt lat="48.800426" lon="11.225076">
        <ele>403.517793</ele>
        <time>2019-03-10T17:59:20.997Z</time>
      </trkpt>
      <trkpt lat="48.800555" lon="11.225090">
        <ele>403.924887</ele>
        <time>2019-03-10T17:59:22.997Z</time>
      </trkpt>
      <trkpt lat="48.800659" lon="11.225115">
        <ele>404.256330</ele>
        <time>2019-03-10T17:59:24.997Z</time>
      </trkpt>
      <trkpt lat="48.800779" lon="11.225137">
        <ele>404.636802</ele>
        <time>2019-03-10T17:59:26.997Z</time>
      </trkpt>
      <trkpt lat="48.800910" lon="11.225146">
        <ele>405.049577</ele>
        <time>2019-03-10T17:59:28.997Z</time>
      </trkpt>
      <trkpt lat="48.801047" lon="11.225179">
        <ele>405.486211</ele>
        <time>2019-03-10T17:59:30.997Z</time>
      </trkpt>
      <trkpt lat="48.801171" lon="11.225220">
        <ele>405.885680</ele>
        <time>2019-03-10T17:59:32.997Z</time>
      </trkpt>
      <trkpt lat="48.801307" lon="11.225251">
        <ele>406.318570</ele>
        <time>2019-03-10T17:59:34.997Z</time>
      </trkpt>
      <trkpt lat="48.801440" lon="11.225268">
        <ele>406.738700</ele>
        <time>2019-03-10T17:59:36.997Z</time>
      </trkpt>
      <trkpt lat="48.801559" lon="11.225307">
        <ele>407.127903</ele>
        <time>2019-03-10T17:59:38.997Z</time>
      </trkpt>
      <trkpt lat="48.801682" lon="11.225346">
        <ele>407.530431</ele>
        <time>2019-03-10T17:59:40.997Z</time>
      </trkpt>
      <trkpt lat="48.801816" lon="11.225361">
        <ele>407.960862</ele>
        <time>2019-03-10T17:59:42.997Z</time>
      </trkpt>
      <trkpt lat="48.801938" lon="11.225385">
        <ele>408.354952</ele>
        <time>2019-03-10T17:59:44.997Z</time>
      </trkpt>
      <trkpt lat="48.802087" lon="11.225383">
        <ele>408.832288</ele>
        <time>2019-03-10T17:59:46.997Z</time>
      </trkpt>
      <trkpt lat="48.802255" lon="11.225394">
        <ele>409.370971</ele>
        <time>2019-03-10T17:59:48.997Z</time>
      </trkpt>
      <trkpt lat="48.802414" lon="11.225406">
        <ele>409.880952</ele>
        <time>2019-03-10T17:59:50.997Z</time>
      </trkpt>
      <trkpt lat="48.802558" lon="11.225440">
        <ele>410.347797</ele>
        <time>2019-03-10T17:59:52.997Z</time>
      </trkpt>
      <trkpt lat="48.802652" lon="11.225425">
        <ele>410.650582</ele>
        <time>2019-03-10T17:59:53.996Z</time>
      </trkpt>
      <trkpt lat="48.802763" lon="11.225444">
        <ele>411.008420</ele>
        <time>2019-03-10T17:59:56.996Z</time>
      </trkpt>
      <trkpt lat="48.802874" lon="11.225506">
        <ele>411.387306</ele>
        <time>2019-03-10T18:00:00.996Z</time>
      </trkpt>
      <trkpt lat="48.802971" lon="11.225510">
        <ele>411.698157</ele>
        <time>2019-03-10T18:00:03.996Z</time>
      </trkpt>
      <trkpt lat="48.802997" lon="11.225659">
        <ele>412.023388</ele>
        <time>2019-03-10T18:00:06.996Z</time>
      </trkpt>
      <trkpt lat="48.802959" lon="11.225786">
        <ele>412.317708</ele>
        <time>2019-03-10T18:00:08.996Z</time>
      </trkpt>
      <trkpt lat="48.802955" lon="11.225983">
        <ele>412.545232</ele>
        <time>2019-03-10T18:00:10.996Z</time>
      </trkpt>
      <trkpt lat="48.802932" lon="11.226153">
        <ele>412.545232</ele>
        <time>2019-03-10T18:00:12.996Z</time>
      </trkpt>
      <trkpt lat="48.802931" lon="11.226340">
        <ele>412.545232</ele>
        <time>2019-03-10T18:00:14.996Z</time>
      </trkpt>
      <trkpt lat="48.802909" lon="11.226551">
        <ele>412.545232</ele>
        <time>2019-03-10T18:00:16.996Z</time>
      </trkpt>
      <trkpt lat="48.802878" lon="11.226762">
        <ele>412.545232</ele>
        <time>2019-03-10T18:00:18.996Z</time>
      </trkpt>
      <trkpt lat="48.802854" lon="11.226958">
        <ele>412.545232</ele>
        <time>2019-03-10T18:00:20.996Z</time>
      </trkpt>
      <trkpt lat="48.802838" lon="11.227176">
        <ele>412.545232</ele>
        <time>2019-03-10T18:00:22.995Z</time>
      </trkpt>
      <trkpt lat="48.802812" lon="11.227367">
        <ele>412.545232</ele>
        <time>2019-03-10T18:00:24.995Z</time>
      </trkpt>
      <trkpt lat="48.802779" lon="11.227549">
        <ele>412.545232</ele>
        <time>2019-03-10T18:00:26.995Z</time>
      </trkpt>
      <trkpt lat="48.802694" lon="11.227658">
        <ele>412.545232</ele>
        <time>2019-03-10T18:00:29.995Z</time>
      </trkpt>
      <trkpt lat="48.802578" lon="11.227672">
        <ele>412.545232</ele>
        <time>2019-03-10T18:00:33.995Z</time>
      </trkpt>
    </trkseg>
  </trk>
</gpx>